<?xml version="1.0" encoding="UTF-8"?>
<gpx version="1.1" creator="2bulu-scraper" xmlns="http://www.topografix.com/GPX/1/1">
  <metadata><name>昭通大山包村瀑布</name><desc>source: 2bulu.com trackId=88053221; exported 2026-09-01T18:31:15.370Z</desc>
    <bounds minlat="27.467145" minlon="103.290311" maxlat="27.476043" maxlon="103.294209"/>
    <link href="https://www.2bulu.com/track/t-JbXa%252BZ4g9PHp%252FR2KBg5Tzw%253D%253D.htm"><text>2bulu 源页面</text></link>
  </metadata>
  <wpt lat="27.468687" lon="103.293535"><ele>2817</ele><name></name></wpt>
  <wpt lat="27.471376" lon="103.292727"><ele>2855</ele><name></name></wpt>
  <wpt lat="27.475086" lon="103.293012"><ele>2836</ele><name></name></wpt>
  <wpt lat="27.475803" lon="103.291037"><ele>2819</ele><name></name></wpt>
  <wpt lat="27.475737" lon="103.290916"><ele>2819</ele><name></name></wpt>
  <wpt lat="27.475597" lon="103.290932"><ele>2818</ele><name></name></wpt>
  <wpt lat="27.475361" lon="103.291043"><ele>2818</ele><name></name></wpt>
  <wpt lat="27.474959" lon="103.291388"><ele>2823</ele><name></name></wpt>
  <wpt lat="27.473629" lon="103.290546"><ele>2818</ele><name></name></wpt>
  <wpt lat="27.473409" lon="103.290588"><ele>2822</ele><name></name></wpt>
  <wpt lat="27.470716" lon="103.291953"><ele>2861</ele><name></name></wpt>
  <wpt lat="27.469775" lon="103.2917"><ele>2865</ele><name></name></wpt>
  <wpt lat="27.468834" lon="103.292339"><ele>2876</ele><name></name></wpt>
  <wpt lat="27.468781" lon="103.292942"><ele>2881</ele><name></name></wpt>
  <trk><name>昭通大山包村瀑布</name>
      <trkseg>
        <trkpt lat="27.468521" lon="103.293669"><ele>2884.545</ele><time>2026-08-06T22:59:18.000Z</time></trkpt>
        <trkpt lat="27.468513" lon="103.293724"><ele>2885.4207</ele><time>2026-08-06T22:59:22.000Z</time></trkpt>
        <trkpt lat="27.468513" lon="103.293775"><ele>2882.642</ele><time>2026-08-06T23:00:02.000Z</time></trkpt>
        <trkpt lat="27.468466" lon="103.29379"><ele>2882.7695</ele><time>2026-08-06T23:00:17.000Z</time></trkpt>
        <trkpt lat="27.468521" lon="103.293806"><ele>2877.419</ele><time>2026-08-06T23:00:44.000Z</time></trkpt>
        <trkpt lat="27.46853" lon="103.293752"><ele>2878.6284</ele><time>2026-08-06T23:00:50.000Z</time></trkpt>
        <trkpt lat="27.468511" lon="103.2937"><ele>2882.9382</ele><time>2026-08-06T23:01:22.000Z</time></trkpt>
        <trkpt lat="27.468557" lon="103.2937"><ele>2884.4321</ele><time>2026-08-06T23:01:37.000Z</time></trkpt>
        <trkpt lat="27.4686" lon="103.29368"><ele>2885.4126</ele><time>2026-08-06T23:01:43.000Z</time></trkpt>
        <trkpt lat="27.46864" lon="103.293658"><ele>2885.9077</ele><time>2026-08-06T23:01:58.000Z</time></trkpt>
        <trkpt lat="27.468686" lon="103.293626"><ele>2882.409</ele><time>2026-08-06T23:02:35.000Z</time></trkpt>
        <trkpt lat="27.468719" lon="103.293587"><ele>2882.5906</ele><time>2026-08-06T23:02:49.000Z</time></trkpt>
        <trkpt lat="27.468761" lon="103.293566"><ele>2879.1794</ele><time>2026-08-06T23:03:09.000Z</time></trkpt>
        <trkpt lat="27.468798" lon="103.293529"><ele>2878.4858</ele><time>2026-08-06T23:03:24.000Z</time></trkpt>
        <trkpt lat="27.46883" lon="103.293483"><ele>2877.6025</ele><time>2026-08-06T23:03:32.000Z</time></trkpt>
        <trkpt lat="27.468868" lon="103.293453"><ele>2876.841</ele><time>2026-08-06T23:03:39.000Z</time></trkpt>
        <trkpt lat="27.468911" lon="103.293435"><ele>2876.4458</ele><time>2026-08-06T23:04:09.000Z</time></trkpt>
        <trkpt lat="27.468942" lon="103.293387"><ele>2878.3823</ele><time>2026-08-06T23:04:18.000Z</time></trkpt>
        <trkpt lat="27.468966" lon="103.293343"><ele>2877.2478</ele><time>2026-08-06T23:04:26.000Z</time></trkpt>
        <trkpt lat="27.469006" lon="103.293313"><ele>2875.434</ele><time>2026-08-06T23:04:32.000Z</time></trkpt>
        <trkpt lat="27.469051" lon="103.293293"><ele>2874.2703</ele><time>2026-08-06T23:04:37.000Z</time></trkpt>
        <trkpt lat="27.469088" lon="103.29326"><ele>2872.758</ele><time>2026-08-06T23:04:46.000Z</time></trkpt>
        <trkpt lat="27.469126" lon="103.293223"><ele>2871.0503</ele><time>2026-08-06T23:04:52.000Z</time></trkpt>
        <trkpt lat="27.469175" lon="103.293204"><ele>2870.8862</ele><time>2026-08-06T23:04:57.000Z</time></trkpt>
        <trkpt lat="27.469219" lon="103.293177"><ele>2871.2158</ele><time>2026-08-06T23:05:02.000Z</time></trkpt>
        <trkpt lat="27.469255" lon="103.293139"><ele>2870.9138</ele><time>2026-08-06T23:05:33.000Z</time></trkpt>
        <trkpt lat="27.469299" lon="103.293118"><ele>2870.7673</ele><time>2026-08-06T23:05:38.000Z</time></trkpt>
        <trkpt lat="27.469346" lon="103.293111"><ele>2868.154</ele><time>2026-08-06T23:05:57.000Z</time></trkpt>
        <trkpt lat="27.469399" lon="103.293086"><ele>2867.3933</ele><time>2026-08-06T23:06:00.000Z</time></trkpt>
        <trkpt lat="27.469402" lon="103.293036"><ele>2869.2615</ele><time>2026-08-06T23:06:15.000Z</time></trkpt>
        <trkpt lat="27.469443" lon="103.293014"><ele>2867.539</ele><time>2026-08-06T23:06:22.000Z</time></trkpt>
        <trkpt lat="27.469487" lon="103.292987"><ele>2865.7114</ele><time>2026-08-06T23:06:28.000Z</time></trkpt>
        <trkpt lat="27.469529" lon="103.292955"><ele>2866.9534</ele><time>2026-08-06T23:06:34.000Z</time></trkpt>
        <trkpt lat="27.469559" lon="103.292911"><ele>2865.8809</ele><time>2026-08-06T23:06:42.000Z</time></trkpt>
        <trkpt lat="27.46959" lon="103.292868"><ele>2866.4417</ele><time>2026-08-06T23:06:47.000Z</time></trkpt>
        <trkpt lat="27.469625" lon="103.29283"><ele>2865.201</ele><time>2026-08-06T23:06:54.000Z</time></trkpt>
        <trkpt lat="27.469662" lon="103.292798"><ele>2865.9797</ele><time>2026-08-06T23:07:00.000Z</time></trkpt>
        <trkpt lat="27.4697" lon="103.292769"><ele>2867.2551</ele><time>2026-08-06T23:07:09.000Z</time></trkpt>
        <trkpt lat="27.469752" lon="103.292772"><ele>2867.2239</ele><time>2026-08-06T23:07:16.000Z</time></trkpt>
        <trkpt lat="27.469796" lon="103.292786"><ele>2866.4028</ele><time>2026-08-06T23:07:22.000Z</time></trkpt>
        <trkpt lat="27.469804" lon="103.292789"><ele>2866.2825</ele><time>2026-08-06T23:07:23.000Z</time></trkpt>
        <trkpt lat="27.469811" lon="103.29279"><ele>2865.41</ele><time>2026-08-06T23:07:24.000Z</time></trkpt>
        <trkpt lat="27.469854" lon="103.292807"><ele>2864.4685</ele><time>2026-08-06T23:07:28.000Z</time></trkpt>
        <trkpt lat="27.469901" lon="103.292821"><ele>2864.2644</ele><time>2026-08-06T23:07:34.000Z</time></trkpt>
        <trkpt lat="27.469947" lon="103.292825"><ele>2863.6248</ele><time>2026-08-06T23:07:40.000Z</time></trkpt>
        <trkpt lat="27.469997" lon="103.292819"><ele>2864.3257</ele><time>2026-08-06T23:07:45.000Z</time></trkpt>
        <trkpt lat="27.470043" lon="103.292832"><ele>2862.1824</ele><time>2026-08-06T23:07:51.000Z</time></trkpt>
        <trkpt lat="27.470075" lon="103.292876"><ele>2859.5583</ele><time>2026-08-06T23:07:59.000Z</time></trkpt>
        <trkpt lat="27.470096" lon="103.292922"><ele>2858.1143</ele><time>2026-08-06T23:08:07.000Z</time></trkpt>
        <trkpt lat="27.470145" lon="103.292916"><ele>2857.6426</ele><time>2026-08-06T23:08:15.000Z</time></trkpt>
        <trkpt lat="27.470187" lon="103.292896"><ele>2857.8281</ele><time>2026-08-06T23:08:22.000Z</time></trkpt>
        <trkpt lat="27.470232" lon="103.292902"><ele>2858.968</ele><time>2026-08-06T23:08:32.000Z</time></trkpt>
        <trkpt lat="27.470277" lon="103.292913"><ele>2859.4502</ele><time>2026-08-06T23:08:41.000Z</time></trkpt>
        <trkpt lat="27.470312" lon="103.292951"><ele>2859.7017</ele><time>2026-08-06T23:08:50.000Z</time></trkpt>
        <trkpt lat="27.470355" lon="103.292969"><ele>2854.7114</ele><time>2026-08-06T23:09:02.000Z</time></trkpt>
        <trkpt lat="27.470401" lon="103.29296"><ele>2854.9897</ele><time>2026-08-06T23:09:09.000Z</time></trkpt>
        <trkpt lat="27.470441" lon="103.292935"><ele>2855.3271</ele><time>2026-08-06T23:09:17.000Z</time></trkpt>
        <trkpt lat="27.470478" lon="103.292903"><ele>2852.9363</ele><time>2026-08-06T23:09:22.000Z</time></trkpt>
        <trkpt lat="27.47051" lon="103.292857"><ele>2852.318</ele><time>2026-08-06T23:09:27.000Z</time></trkpt>
        <trkpt lat="27.470543" lon="103.29282"><ele>2852.4563</ele><time>2026-08-06T23:09:34.000Z</time></trkpt>
        <trkpt lat="27.470582" lon="103.292792"><ele>2851.3948</ele><time>2026-08-06T23:09:40.000Z</time></trkpt>
        <trkpt lat="27.470629" lon="103.292809"><ele>2850.8364</ele><time>2026-08-06T23:09:48.000Z</time></trkpt>
        <trkpt lat="27.470683" lon="103.292822"><ele>2850.3518</ele><time>2026-08-06T23:09:57.000Z</time></trkpt>
        <trkpt lat="27.47073" lon="103.29284"><ele>2850.5266</ele><time>2026-08-06T23:10:01.000Z</time></trkpt>
        <trkpt lat="27.470769" lon="103.292871"><ele>2849.8552</ele><time>2026-08-06T23:10:06.000Z</time></trkpt>
        <trkpt lat="27.470819" lon="103.292874"><ele>2850.2795</ele><time>2026-08-06T23:10:14.000Z</time></trkpt>
        <trkpt lat="27.470864" lon="103.292846"><ele>2849.7917</ele><time>2026-08-06T23:10:19.000Z</time></trkpt>
        <trkpt lat="27.47091" lon="103.292856"><ele>2849.8557</ele><time>2026-08-06T23:10:25.000Z</time></trkpt>
        <trkpt lat="27.470962" lon="103.29285"><ele>2849.4526</ele><time>2026-08-06T23:10:32.000Z</time></trkpt>
        <trkpt lat="27.47101" lon="103.292864"><ele>2849.9617</ele><time>2026-08-06T23:10:38.000Z</time></trkpt>
        <trkpt lat="27.471055" lon="103.292864"><ele>2849.5642</ele><time>2026-08-06T23:10:43.000Z</time></trkpt>
        <trkpt lat="27.471109" lon="103.292853"><ele>2850.511</ele><time>2026-08-06T23:10:50.000Z</time></trkpt>
        <trkpt lat="27.471156" lon="103.292841"><ele>2850.3328</ele><time>2026-08-06T23:10:53.000Z</time></trkpt>
        <trkpt lat="27.471201" lon="103.292821"><ele>2849.9058</ele><time>2026-08-06T23:10:58.000Z</time></trkpt>
        <trkpt lat="27.471243" lon="103.292796"><ele>2849.4355</ele><time>2026-08-06T23:11:04.000Z</time></trkpt>
        <trkpt lat="27.471291" lon="103.29277"><ele>2850.4575</ele><time>2026-08-06T23:11:10.000Z</time></trkpt>
        <trkpt lat="27.471334" lon="103.292745"><ele>2851.8289</ele><time>2026-08-06T23:11:16.000Z</time></trkpt>
        <trkpt lat="27.471376" lon="103.292727"><ele>2855.2185</ele><time>2026-08-06T23:11:30.000Z</time></trkpt>
        <trkpt lat="27.47141" lon="103.29269"><ele>2854.2644</ele><time>2026-08-06T23:11:44.000Z</time></trkpt>
        <trkpt lat="27.471455" lon="103.292678"><ele>2852.8816</ele><time>2026-08-06T23:11:52.000Z</time></trkpt>
        <trkpt lat="27.471501" lon="103.292647"><ele>2852.5178</ele><time>2026-08-06T23:11:59.000Z</time></trkpt>
        <trkpt lat="27.471548" lon="103.292631"><ele>2853.932</ele><time>2026-08-06T23:12:19.000Z</time></trkpt>
        <trkpt lat="27.471598" lon="103.292622"><ele>2854.5583</ele><time>2026-08-06T23:12:22.000Z</time></trkpt>
        <trkpt lat="27.471649" lon="103.292592"><ele>2854.7693</ele><time>2026-08-06T23:12:27.000Z</time></trkpt>
        <trkpt lat="27.471688" lon="103.292563"><ele>2853.3428</ele><time>2026-08-06T23:12:31.000Z</time></trkpt>
        <trkpt lat="27.471734" lon="103.292535"><ele>2852.0623</ele><time>2026-08-06T23:12:35.000Z</time></trkpt>
        <trkpt lat="27.471778" lon="103.292524"><ele>2852.8242</ele><time>2026-08-06T23:12:41.000Z</time></trkpt>
        <trkpt lat="27.471828" lon="103.292526"><ele>2853.5261</ele><time>2026-08-06T23:12:46.000Z</time></trkpt>
        <trkpt lat="27.471879" lon="103.292536"><ele>2854.6433</ele><time>2026-08-06T23:12:51.000Z</time></trkpt>
        <trkpt lat="27.471927" lon="103.292558"><ele>2855.5415</ele><time>2026-08-06T23:12:57.000Z</time></trkpt>
        <trkpt lat="27.471973" lon="103.292575"><ele>2855.6216</ele><time>2026-08-06T23:13:03.000Z</time></trkpt>
        <trkpt lat="27.472016" lon="103.292591"><ele>2853.7595</ele><time>2026-08-06T23:13:12.000Z</time></trkpt>
        <trkpt lat="27.472059" lon="103.292575"><ele>2853.9907</ele><time>2026-08-06T23:13:24.000Z</time></trkpt>
        <trkpt lat="27.472104" lon="103.292558"><ele>2853.307</ele><time>2026-08-06T23:13:30.000Z</time></trkpt>
        <trkpt lat="27.472139" lon="103.292593"><ele>2851.4177</ele><time>2026-08-06T23:13:46.000Z</time></trkpt>
        <trkpt lat="27.472183" lon="103.292567"><ele>2850.2942</ele><time>2026-08-06T23:13:58.000Z</time></trkpt>
        <trkpt lat="27.472228" lon="103.292558"><ele>2851.168</ele><time>2026-08-06T23:14:04.000Z</time></trkpt>
        <trkpt lat="27.472267" lon="103.292597"><ele>2850.4426</ele><time>2026-08-06T23:14:11.000Z</time></trkpt>
        <trkpt lat="27.472317" lon="103.292587"><ele>2851.116</ele><time>2026-08-06T23:14:20.000Z</time></trkpt>
        <trkpt lat="27.472344" lon="103.292545"><ele>2850.996</ele><time>2026-08-06T23:14:24.000Z</time></trkpt>
        <trkpt lat="27.47236" lon="103.292492"><ele>2851.2148</ele><time>2026-08-06T23:14:29.000Z</time></trkpt>
        <trkpt lat="27.47239" lon="103.292441"><ele>2851.7405</ele><time>2026-08-06T23:14:33.000Z</time></trkpt>
        <trkpt lat="27.472421" lon="103.292398"><ele>2852.3726</ele><time>2026-08-06T23:14:38.000Z</time></trkpt>
        <trkpt lat="27.47246" lon="103.292366"><ele>2853.862</ele><time>2026-08-06T23:14:45.000Z</time></trkpt>
        <trkpt lat="27.472504" lon="103.292354"><ele>2854.1768</ele><time>2026-08-06T23:14:51.000Z</time></trkpt>
        <trkpt lat="27.472542" lon="103.292325"><ele>2853.9333</ele><time>2026-08-06T23:15:01.000Z</time></trkpt>
        <trkpt lat="27.472588" lon="103.292292"><ele>2854.4739</ele><time>2026-08-06T23:15:09.000Z</time></trkpt>
        <trkpt lat="27.472632" lon="103.29227"><ele>2853.3333</ele><time>2026-08-06T23:15:15.000Z</time></trkpt>
        <trkpt lat="27.472651" lon="103.292224"><ele>2853.1812</ele><time>2026-08-06T23:15:23.000Z</time></trkpt>
        <trkpt lat="27.472701" lon="103.292213"><ele>2852.9539</ele><time>2026-08-06T23:15:28.000Z</time></trkpt>
        <trkpt lat="27.472745" lon="103.292189"><ele>2852.3477</ele><time>2026-08-06T23:15:31.000Z</time></trkpt>
        <trkpt lat="27.472792" lon="103.292152"><ele>2852.0999</ele><time>2026-08-06T23:15:35.000Z</time></trkpt>
        <trkpt lat="27.472818" lon="103.292102"><ele>2853.2988</ele><time>2026-08-06T23:15:41.000Z</time></trkpt>
        <trkpt lat="27.472829" lon="103.292052"><ele>2855.316</ele><time>2026-08-06T23:15:56.000Z</time></trkpt>
        <trkpt lat="27.472862" lon="103.292007"><ele>2855.284</ele><time>2026-08-06T23:16:05.000Z</time></trkpt>
        <trkpt lat="27.472894" lon="103.291964"><ele>2854.754</ele><time>2026-08-06T23:16:10.000Z</time></trkpt>
        <trkpt lat="27.472946" lon="103.291952"><ele>2854.825</ele><time>2026-08-06T23:16:15.000Z</time></trkpt>
        <trkpt lat="27.472968" lon="103.291903"><ele>2855.02</ele><time>2026-08-06T23:16:20.000Z</time></trkpt>
        <trkpt lat="27.473002" lon="103.29187"><ele>2855.8997</ele><time>2026-08-06T23:16:25.000Z</time></trkpt>
        <trkpt lat="27.473041" lon="103.291841"><ele>2855.9485</ele><time>2026-08-06T23:16:30.000Z</time></trkpt>
        <trkpt lat="27.473081" lon="103.291804"><ele>2853.8303</ele><time>2026-08-06T23:16:36.000Z</time></trkpt>
        <trkpt lat="27.473126" lon="103.291819"><ele>2853.8718</ele><time>2026-08-06T23:16:40.000Z</time></trkpt>
        <trkpt lat="27.473149" lon="103.291774"><ele>2853.5518</ele><time>2026-08-06T23:16:45.000Z</time></trkpt>
        <trkpt lat="27.473149" lon="103.291722"><ele>2854.5376</ele><time>2026-08-06T23:16:50.000Z</time></trkpt>
        <trkpt lat="27.473173" lon="103.291676"><ele>2853.631</ele><time>2026-08-06T23:16:55.000Z</time></trkpt>
        <trkpt lat="27.473215" lon="103.291642"><ele>2853.2395</ele><time>2026-08-06T23:17:02.000Z</time></trkpt>
        <trkpt lat="27.473248" lon="103.291606"><ele>2853.3804</ele><time>2026-08-06T23:17:08.000Z</time></trkpt>
        <trkpt lat="27.473299" lon="103.291581"><ele>2854.2312</ele><time>2026-08-06T23:17:15.000Z</time></trkpt>
        <trkpt lat="27.473344" lon="103.291557"><ele>2854.5625</ele><time>2026-08-06T23:17:21.000Z</time></trkpt>
        <trkpt lat="27.473387" lon="103.291522"><ele>2855.4014</ele><time>2026-08-06T23:17:26.000Z</time></trkpt>
        <trkpt lat="27.473421" lon="103.291486"><ele>2855.5413</ele><time>2026-08-06T23:17:34.000Z</time></trkpt>
        <trkpt lat="27.473439" lon="103.291439"><ele>2854.403</ele><time>2026-08-06T23:17:38.000Z</time></trkpt>
        <trkpt lat="27.473483" lon="103.291412"><ele>2855.418</ele><time>2026-08-06T23:17:47.000Z</time></trkpt>
        <trkpt lat="27.47352" lon="103.291382"><ele>2854.5017</ele><time>2026-08-06T23:17:55.000Z</time></trkpt>
        <trkpt lat="27.473565" lon="103.291362"><ele>2852.8347</ele><time>2026-08-06T23:18:03.000Z</time></trkpt>
        <trkpt lat="27.473602" lon="103.291393"><ele>2852.387</ele><time>2026-08-06T23:18:12.000Z</time></trkpt>
        <trkpt lat="27.473637" lon="103.291432"><ele>2852.7742</ele><time>2026-08-06T23:18:16.000Z</time></trkpt>
        <trkpt lat="27.473675" lon="103.291468"><ele>2852.2712</ele><time>2026-08-06T23:18:21.000Z</time></trkpt>
        <trkpt lat="27.473698" lon="103.291512"><ele>2853.3713</ele><time>2026-08-06T23:18:28.000Z</time></trkpt>
        <trkpt lat="27.473716" lon="103.291561"><ele>2852.9783</ele><time>2026-08-06T23:18:39.000Z</time></trkpt>
        <trkpt lat="27.473735" lon="103.291608"><ele>2852.9785</ele><time>2026-08-06T23:18:46.000Z</time></trkpt>
        <trkpt lat="27.473762" lon="103.291649"><ele>2851.6619</ele><time>2026-08-06T23:18:57.000Z</time></trkpt>
        <trkpt lat="27.473777" lon="103.291699"><ele>2851.8765</ele><time>2026-08-06T23:19:03.000Z</time></trkpt>
        <trkpt lat="27.473811" lon="103.291744"><ele>2852.0117</ele><time>2026-08-06T23:19:09.000Z</time></trkpt>
        <trkpt lat="27.473829" lon="103.291791"><ele>2852.314</ele><time>2026-08-06T23:19:14.000Z</time></trkpt>
        <trkpt lat="27.473858" lon="103.291829"><ele>2852.6182</ele><time>2026-08-06T23:19:21.000Z</time></trkpt>
        <trkpt lat="27.473896" lon="103.291869"><ele>2854.3308</ele><time>2026-08-06T23:19:36.000Z</time></trkpt>
        <trkpt lat="27.473939" lon="103.291896"><ele>2853.4019</ele><time>2026-08-06T23:19:42.000Z</time></trkpt>
        <trkpt lat="27.473976" lon="103.291931"><ele>2851.9082</ele><time>2026-08-06T23:19:47.000Z</time></trkpt>
        <trkpt lat="27.473996" lon="103.291983"><ele>2851.183</ele><time>2026-08-06T23:19:56.000Z</time></trkpt>
        <trkpt lat="27.473997" lon="103.292041"><ele>2851.7363</ele><time>2026-08-06T23:20:02.000Z</time></trkpt>
        <trkpt lat="27.473998" lon="103.292096"><ele>2853.1956</ele><time>2026-08-06T23:20:09.000Z</time></trkpt>
        <trkpt lat="27.474025" lon="103.292146"><ele>2854.9038</ele><time>2026-08-06T23:20:14.000Z</time></trkpt>
        <trkpt lat="27.474061" lon="103.292179"><ele>2853.7527</ele><time>2026-08-06T23:20:23.000Z</time></trkpt>
        <trkpt lat="27.474026" lon="103.292217"><ele>2849.387</ele><time>2026-08-06T23:20:35.000Z</time></trkpt>
        <trkpt lat="27.474021" lon="103.29227"><ele>2848.1663</ele><time>2026-08-06T23:20:46.000Z</time></trkpt>
        <trkpt lat="27.474023" lon="103.292322"><ele>2849.9927</ele><time>2026-08-06T23:21:01.000Z</time></trkpt>
        <trkpt lat="27.474062" lon="103.292352"><ele>2850.2322</ele><time>2026-08-06T23:21:06.000Z</time></trkpt>
        <trkpt lat="27.474102" lon="103.292315"><ele>2849.3772</ele><time>2026-08-06T23:21:14.000Z</time></trkpt>
        <trkpt lat="27.474107" lon="103.292263"><ele>2848.612</ele><time>2026-08-06T23:21:43.000Z</time></trkpt>
        <trkpt lat="27.474152" lon="103.292258"><ele>2847.7905</ele><time>2026-08-06T23:21:52.000Z</time></trkpt>
        <trkpt lat="27.474194" lon="103.292281"><ele>2846.3088</ele><time>2026-08-06T23:22:04.000Z</time></trkpt>
        <trkpt lat="27.474217" lon="103.292326"><ele>2846.9392</ele><time>2026-08-06T23:22:09.000Z</time></trkpt>
        <trkpt lat="27.47423" lon="103.292376"><ele>2847.6248</ele><time>2026-08-06T23:22:18.000Z</time></trkpt>
        <trkpt lat="27.474265" lon="103.292414"><ele>2847.3389</ele><time>2026-08-06T23:22:27.000Z</time></trkpt>
        <trkpt lat="27.474313" lon="103.292424"><ele>2848.643</ele><time>2026-08-06T23:22:33.000Z</time></trkpt>
        <trkpt lat="27.474358" lon="103.292442"><ele>2847.3574</ele><time>2026-08-06T23:22:54.000Z</time></trkpt>
        <trkpt lat="27.474403" lon="103.292458"><ele>2847.5542</ele><time>2026-08-06T23:23:02.000Z</time></trkpt>
        <trkpt lat="27.474446" lon="103.292427"><ele>2847.677</ele><time>2026-08-06T23:23:07.000Z</time></trkpt>
        <trkpt lat="27.474493" lon="103.292437"><ele>2848.06</ele><time>2026-08-06T23:23:18.000Z</time></trkpt>
        <trkpt lat="27.474549" lon="103.292453"><ele>2846.587</ele><time>2026-08-06T23:23:26.000Z</time></trkpt>
        <trkpt lat="27.4746" lon="103.292461"><ele>2847.3113</ele><time>2026-08-06T23:23:30.000Z</time></trkpt>
        <trkpt lat="27.474648" lon="103.29247"><ele>2847.632</ele><time>2026-08-06T23:23:36.000Z</time></trkpt>
        <trkpt lat="27.474678" lon="103.292512"><ele>2847.8887</ele><time>2026-08-06T23:23:42.000Z</time></trkpt>
        <trkpt lat="27.474714" lon="103.292545"><ele>2848.64</ele><time>2026-08-06T23:23:52.000Z</time></trkpt>
        <trkpt lat="27.47474" lon="103.292589"><ele>2847.7947</ele><time>2026-08-06T23:24:04.000Z</time></trkpt>
        <trkpt lat="27.47475" lon="103.292645"><ele>2847.81</ele><time>2026-08-06T23:24:14.000Z</time></trkpt>
        <trkpt lat="27.474787" lon="103.292683"><ele>2846.9766</ele><time>2026-08-06T23:24:20.000Z</time></trkpt>
        <trkpt lat="27.474818" lon="103.292724"><ele>2845.846</ele><time>2026-08-06T23:24:27.000Z</time></trkpt>
        <trkpt lat="27.474849" lon="103.292762"><ele>2844.9214</ele><time>2026-08-06T23:24:32.000Z</time></trkpt>
        <trkpt lat="27.474877" lon="103.292803"><ele>2842.9287</ele><time>2026-08-06T23:24:39.000Z</time></trkpt>
        <trkpt lat="27.474913" lon="103.29284"><ele>2838.8403</ele><time>2026-08-06T23:24:54.000Z</time></trkpt>
        <trkpt lat="27.474945" lon="103.292888"><ele>2838.7314</ele><time>2026-08-06T23:25:04.000Z</time></trkpt>
        <trkpt lat="27.474964" lon="103.292936"><ele>2838.1</ele><time>2026-08-06T23:25:13.000Z</time></trkpt>
        <trkpt lat="27.474967" lon="103.292939"><ele>2837.9973</ele><time>2026-08-06T23:25:14.000Z</time></trkpt>
        <trkpt lat="27.475008" lon="103.292962"><ele>2837.6064</ele><time>2026-08-06T23:25:25.000Z</time></trkpt>
        <trkpt lat="27.475042" lon="103.293001"><ele>2835.8801</ele><time>2026-08-06T23:25:33.000Z</time></trkpt>
        <trkpt lat="27.475086" lon="103.293012"><ele>2835.733</ele><time>2026-08-06T23:25:41.000Z</time></trkpt>
        <trkpt lat="27.475057" lon="103.293052"><ele>2834.9958</ele><time>2026-08-06T23:26:16.000Z</time></trkpt>
        <trkpt lat="27.475069" lon="103.293103"><ele>2830.4172</ele><time>2026-08-06T23:27:17.000Z</time></trkpt>
        <trkpt lat="27.475117" lon="103.293125"><ele>2831.7708</ele><time>2026-08-06T23:27:29.000Z</time></trkpt>
        <trkpt lat="27.475154" lon="103.293154"><ele>2833.2312</ele><time>2026-08-06T23:27:38.000Z</time></trkpt>
        <trkpt lat="27.475197" lon="103.293125"><ele>2833.3157</ele><time>2026-08-06T23:27:42.000Z</time></trkpt>
        <trkpt lat="27.475229" lon="103.293088"><ele>2834.7063</ele><time>2026-08-06T23:27:49.000Z</time></trkpt>
        <trkpt lat="27.475251" lon="103.293042"><ele>2834.543</ele><time>2026-08-06T23:27:55.000Z</time></trkpt>
        <trkpt lat="27.475282" lon="103.293004"><ele>2835.6504</ele><time>2026-08-06T23:28:00.000Z</time></trkpt>
        <trkpt lat="27.47529" lon="103.293002"><ele>2835.432</ele><time>2026-08-06T23:28:01.000Z</time></trkpt>
        <trkpt lat="27.475344" lon="103.292999"><ele>2836.7864</ele><time>2026-08-06T23:28:05.000Z</time></trkpt>
        <trkpt lat="27.475384" lon="103.292973"><ele>2837.4214</ele><time>2026-08-06T23:28:09.000Z</time></trkpt>
        <trkpt lat="27.475429" lon="103.292955"><ele>2838.0173</ele><time>2026-08-06T23:28:14.000Z</time></trkpt>
        <trkpt lat="27.475461" lon="103.292903"><ele>2839.6318</ele><time>2026-08-06T23:28:22.000Z</time></trkpt>
        <trkpt lat="27.475492" lon="103.292855"><ele>2840.1404</ele><time>2026-08-06T23:28:28.000Z</time></trkpt>
        <trkpt lat="27.475535" lon="103.292836"><ele>2840.4788</ele><time>2026-08-06T23:28:36.000Z</time></trkpt>
        <trkpt lat="27.475581" lon="103.292825"><ele>2841.3118</ele><time>2026-08-06T23:28:43.000Z</time></trkpt>
        <trkpt lat="27.475628" lon="103.292822"><ele>2840.5537</ele><time>2026-08-06T23:28:48.000Z</time></trkpt>
        <trkpt lat="27.475655" lon="103.292872"><ele>2837.927</ele><time>2026-08-06T23:29:05.000Z</time></trkpt>
        <trkpt lat="27.475688" lon="103.292907"><ele>2837.61</ele><time>2026-08-06T23:29:17.000Z</time></trkpt>
        <trkpt lat="27.475694" lon="103.292909"><ele>2837.7297</ele><time>2026-08-06T23:29:19.000Z</time></trkpt>
        <trkpt lat="27.475742" lon="103.292917"><ele>2836.44</ele><time>2026-08-06T23:29:29.000Z</time></trkpt>
        <trkpt lat="27.475746" lon="103.292918"><ele>2835.9783</ele><time>2026-08-06T23:29:30.000Z</time></trkpt>
        <trkpt lat="27.475756" lon="103.292916"><ele>2835.4463</ele><time>2026-08-06T23:29:31.000Z</time></trkpt>
        <trkpt lat="27.475807" lon="103.292911"><ele>2834.3623</ele><time>2026-08-06T23:29:41.000Z</time></trkpt>
        <trkpt lat="27.475836" lon="103.292962"><ele>2834.7156</ele><time>2026-08-06T23:29:55.000Z</time></trkpt>
        <trkpt lat="27.475872" lon="103.293002"><ele>2836.9946</ele><time>2026-08-06T23:30:20.000Z</time></trkpt>
        <trkpt lat="27.4759" lon="103.293048"><ele>2836.687</ele><time>2026-08-06T23:30:30.000Z</time></trkpt>
        <trkpt lat="27.475949" lon="103.293068"><ele>2835.5771</ele><time>2026-08-06T23:30:37.000Z</time></trkpt>
        <trkpt lat="27.475996" lon="103.293073"><ele>2834.595</ele><time>2026-08-06T23:30:56.000Z</time></trkpt>
        <trkpt lat="27.476043" lon="103.293061"><ele>2832.3154</ele><time>2026-08-06T23:31:10.000Z</time></trkpt>
        <trkpt lat="27.475994" lon="103.293082"><ele>2830.0686</ele><time>2026-08-06T23:31:33.000Z</time></trkpt>
        <trkpt lat="27.475964" lon="103.293034"><ele>2832.1238</ele><time>2026-08-06T23:31:58.000Z</time></trkpt>
        <trkpt lat="27.475922" lon="103.293015"><ele>2834.0205</ele><time>2026-08-06T23:32:13.000Z</time></trkpt>
        <trkpt lat="27.475902" lon="103.292965"><ele>2835.2815</ele><time>2026-08-06T23:32:28.000Z</time></trkpt>
        <trkpt lat="27.47587" lon="103.292924"><ele>2835.4448</ele><time>2026-08-06T23:32:34.000Z</time></trkpt>
        <trkpt lat="27.475884" lon="103.292866"><ele>2836.2964</ele><time>2026-08-06T23:32:49.000Z</time></trkpt>
        <trkpt lat="27.475899" lon="103.292918"><ele>2836.111</ele><time>2026-08-06T23:32:58.000Z</time></trkpt>
        <trkpt lat="27.475856" lon="103.292943"><ele>2836.1748</ele><time>2026-08-06T23:33:06.000Z</time></trkpt>
        <trkpt lat="27.47583" lon="103.292894"><ele>2835.7222</ele><time>2026-08-06T23:33:14.000Z</time></trkpt>
        <trkpt lat="27.475782" lon="103.292904"><ele>2835.3616</ele><time>2026-08-06T23:33:35.000Z</time></trkpt>
        <trkpt lat="27.475736" lon="103.292904"><ele>2835.2195</ele><time>2026-08-06T23:33:41.000Z</time></trkpt>
        <trkpt lat="27.475692" lon="103.292896"><ele>2830.873</ele><time>2026-08-06T23:33:49.000Z</time></trkpt>
        <trkpt lat="27.475634" lon="103.292873"><ele>2832.2522</ele><time>2026-08-06T23:34:04.000Z</time></trkpt>
        <trkpt lat="27.475588" lon="103.292868"><ele>2833.8838</ele><time>2026-08-06T23:34:11.000Z</time></trkpt>
        <trkpt lat="27.475542" lon="103.292856"><ele>2836.8267</ele><time>2026-08-06T23:34:17.000Z</time></trkpt>
        <trkpt lat="27.475494" lon="103.29288"><ele>2835.347</ele><time>2026-08-06T23:34:24.000Z</time></trkpt>
        <trkpt lat="27.475443" lon="103.292897"><ele>2835.7876</ele><time>2026-08-06T23:34:31.000Z</time></trkpt>
        <trkpt lat="27.475401" lon="103.292918"><ele>2836.7898</ele><time>2026-08-06T23:34:36.000Z</time></trkpt>
        <trkpt lat="27.475363" lon="103.292951"><ele>2837.3362</ele><time>2026-08-06T23:34:42.000Z</time></trkpt>
        <trkpt lat="27.475319" lon="103.29298"><ele>2839.1765</ele><time>2026-08-06T23:34:49.000Z</time></trkpt>
        <trkpt lat="27.475272" lon="103.292996"><ele>2840.0007</ele><time>2026-08-06T23:34:58.000Z</time></trkpt>
        <trkpt lat="27.475233" lon="103.293035"><ele>2839.8784</ele><time>2026-08-06T23:35:05.000Z</time></trkpt>
        <trkpt lat="27.475207" lon="103.293077"><ele>2840.257</ele><time>2026-08-06T23:35:10.000Z</time></trkpt>
        <trkpt lat="27.47517" lon="103.293107"><ele>2840.4048</ele><time>2026-08-06T23:35:18.000Z</time></trkpt>
        <trkpt lat="27.475142" lon="103.293065"><ele>2840.234</ele><time>2026-08-06T23:35:24.000Z</time></trkpt>
        <trkpt lat="27.475098" lon="103.293044"><ele>2840.573</ele><time>2026-08-06T23:35:32.000Z</time></trkpt>
        <trkpt lat="27.47506" lon="103.293007"><ele>2841.823</ele><time>2026-08-06T23:35:39.000Z</time></trkpt>
        <trkpt lat="27.475028" lon="103.292964"><ele>2842.2751</ele><time>2026-08-06T23:35:45.000Z</time></trkpt>
        <trkpt lat="27.475005" lon="103.292918"><ele>2842.768</ele><time>2026-08-06T23:35:52.000Z</time></trkpt>
        <trkpt lat="27.474972" lon="103.292883"><ele>2842.8545</ele><time>2026-08-06T23:36:00.000Z</time></trkpt>
        <trkpt lat="27.474951" lon="103.292833"><ele>2844</ele><time>2026-08-06T23:36:10.000Z</time></trkpt>
        <trkpt lat="27.474925" lon="103.292784"><ele>2844.7468</ele><time>2026-08-06T23:36:18.000Z</time></trkpt>
        <trkpt lat="27.474913" lon="103.292729"><ele>2844.763</ele><time>2026-08-06T23:36:25.000Z</time></trkpt>
        <trkpt lat="27.474891" lon="103.292681"><ele>2845.9697</ele><time>2026-08-06T23:36:35.000Z</time></trkpt>
        <trkpt lat="27.474848" lon="103.29265"><ele>2846.5674</ele><time>2026-08-06T23:36:42.000Z</time></trkpt>
        <trkpt lat="27.474807" lon="103.292612"><ele>2846.934</ele><time>2026-08-06T23:36:49.000Z</time></trkpt>
        <trkpt lat="27.474791" lon="103.29256"><ele>2847.2883</ele><time>2026-08-06T23:36:58.000Z</time></trkpt>
        <trkpt lat="27.474746" lon="103.292545"><ele>2846.716</ele><time>2026-08-06T23:37:15.000Z</time></trkpt>
        <trkpt lat="27.474726" lon="103.292496"><ele>2846.7837</ele><time>2026-08-06T23:37:26.000Z</time></trkpt>
        <trkpt lat="27.474708" lon="103.292449"><ele>2847.8499</ele><time>2026-08-06T23:37:43.000Z</time></trkpt>
        <trkpt lat="27.47466" lon="103.29243"><ele>2854.3135</ele><time>2026-08-06T23:37:52.000Z</time></trkpt>
        <trkpt lat="27.474604" lon="103.292417"><ele>2853.2236</ele><time>2026-08-06T23:38:00.000Z</time></trkpt>
        <trkpt lat="27.474556" lon="103.292422"><ele>2852.2888</ele><time>2026-08-06T23:38:08.000Z</time></trkpt>
        <trkpt lat="27.474532" lon="103.292373"><ele>2852.9148</ele><time>2026-08-06T23:38:17.000Z</time></trkpt>
        <trkpt lat="27.474581" lon="103.292372"><ele>2849.3662</ele><time>2026-08-06T23:38:26.000Z</time></trkpt>
        <trkpt lat="27.474597" lon="103.292421"><ele>2849.096</ele><time>2026-08-06T23:38:30.000Z</time></trkpt>
        <trkpt lat="27.47465" lon="103.292415"><ele>2848.4114</ele><time>2026-08-06T23:38:39.000Z</time></trkpt>
        <trkpt lat="27.474693" lon="103.292394"><ele>2848.4465</ele><time>2026-08-06T23:38:43.000Z</time></trkpt>
        <trkpt lat="27.474736" lon="103.292366"><ele>2850.9275</ele><time>2026-08-06T23:38:50.000Z</time></trkpt>
        <trkpt lat="27.474782" lon="103.292352"><ele>2850.7024</ele><time>2026-08-06T23:38:59.000Z</time></trkpt>
        <trkpt lat="27.474828" lon="103.29232"><ele>2852.8982</ele><time>2026-08-06T23:39:09.000Z</time></trkpt>
        <trkpt lat="27.474865" lon="103.292281"><ele>2853.705</ele><time>2026-08-06T23:39:16.000Z</time></trkpt>
        <trkpt lat="27.474892" lon="103.29224"><ele>2852.1838</ele><time>2026-08-06T23:39:30.000Z</time></trkpt>
        <trkpt lat="27.474914" lon="103.292186"><ele>2852.4531</ele><time>2026-08-06T23:39:43.000Z</time></trkpt>
        <trkpt lat="27.474951" lon="103.292155"><ele>2850.4116</ele><time>2026-08-06T23:39:49.000Z</time></trkpt>
        <trkpt lat="27.475001" lon="103.292141"><ele>2851.5227</ele><time>2026-08-06T23:39:57.000Z</time></trkpt>
        <trkpt lat="27.475049" lon="103.292123"><ele>2849.7979</ele><time>2026-08-06T23:40:06.000Z</time></trkpt>
        <trkpt lat="27.475067" lon="103.292077"><ele>2847.988</ele><time>2026-08-06T23:40:22.000Z</time></trkpt>
        <trkpt lat="27.475114" lon="103.292052"><ele>2844.5444</ele><time>2026-08-06T23:40:41.000Z</time></trkpt>
        <trkpt lat="27.475137" lon="103.292"><ele>2844.9902</ele><time>2026-08-06T23:41:05.000Z</time></trkpt>
        <trkpt lat="27.475186" lon="103.291989"><ele>2844.635</ele><time>2026-08-06T23:41:21.000Z</time></trkpt>
        <trkpt lat="27.475234" lon="103.291999"><ele>2838.257</ele><time>2026-08-06T23:41:30.000Z</time></trkpt>
        <trkpt lat="27.475239" lon="103.291946"><ele>2843.8352</ele><time>2026-08-06T23:41:42.000Z</time></trkpt>
        <trkpt lat="27.4752" lon="103.291919"><ele>2843.4575</ele><time>2026-08-06T23:41:52.000Z</time></trkpt>
        <trkpt lat="27.475217" lon="103.291869"><ele>2841.5369</ele><time>2026-08-06T23:42:43.000Z</time></trkpt>
        <trkpt lat="27.475241" lon="103.291822"><ele>2839.8389</ele><time>2026-08-06T23:42:55.000Z</time></trkpt>
        <trkpt lat="27.47528" lon="103.291792"><ele>2839.422</ele><time>2026-08-06T23:43:02.000Z</time></trkpt>
        <trkpt lat="27.475308" lon="103.291748"><ele>2838.6377</ele><time>2026-08-06T23:43:16.000Z</time></trkpt>
        <trkpt lat="27.47531" lon="103.291695"><ele>2838.7388</ele><time>2026-08-06T23:43:24.000Z</time></trkpt>
        <trkpt lat="27.475338" lon="103.291653"><ele>2835.9197</ele><time>2026-08-06T23:43:31.000Z</time></trkpt>
        <trkpt lat="27.475354" lon="103.291601"><ele>2837.0352</ele><time>2026-08-06T23:43:39.000Z</time></trkpt>
        <trkpt lat="27.475398" lon="103.291579"><ele>2835.6262</ele><time>2026-08-06T23:43:51.000Z</time></trkpt>
        <trkpt lat="27.475414" lon="103.291532"><ele>2831.9702</ele><time>2026-08-06T23:44:44.000Z</time></trkpt>
        <trkpt lat="27.475444" lon="103.291491"><ele>2828.798</ele><time>2026-08-06T23:45:21.000Z</time></trkpt>
        <trkpt lat="27.475472" lon="103.291445"><ele>2833.0315</ele><time>2026-08-06T23:45:36.000Z</time></trkpt>
        <trkpt lat="27.475502" lon="103.291405"><ele>2828.6892</ele><time>2026-08-06T23:45:50.000Z</time></trkpt>
        <trkpt lat="27.475551" lon="103.29139"><ele>2829.4248</ele><time>2026-08-06T23:45:57.000Z</time></trkpt>
        <trkpt lat="27.475569" lon="103.29134"><ele>2829.9358</ele><time>2026-08-06T23:46:07.000Z</time></trkpt>
        <trkpt lat="27.475591" lon="103.291295"><ele>2826.2368</ele><time>2026-08-06T23:46:16.000Z</time></trkpt>
        <trkpt lat="27.475629" lon="103.291255"><ele>2824.8203</ele><time>2026-08-06T23:46:31.000Z</time></trkpt>
        <trkpt lat="27.475618" lon="103.291199"><ele>2824.9163</ele><time>2026-08-06T23:46:42.000Z</time></trkpt>
        <trkpt lat="27.475632" lon="103.291149"><ele>2823.8728</ele><time>2026-08-06T23:46:56.000Z</time></trkpt>
        <trkpt lat="27.475657" lon="103.291105"><ele>2824.6062</ele><time>2026-08-06T23:47:04.000Z</time></trkpt>
        <trkpt lat="27.475699" lon="103.291075"><ele>2823.462</ele><time>2026-08-06T23:47:12.000Z</time></trkpt>
        <trkpt lat="27.475744" lon="103.291057"><ele>2821.7683</ele><time>2026-08-06T23:47:18.000Z</time></trkpt>
        <trkpt lat="27.475749" lon="103.291058"><ele>2821.7683</ele><time>2026-08-06T23:47:19.000Z</time></trkpt>
        <trkpt lat="27.475799" lon="103.291056"><ele>2821.1226</ele><time>2026-08-06T23:47:37.000Z</time></trkpt>
        <trkpt lat="27.475755" lon="103.291042"><ele>2819.3484</ele><time>2026-08-06T23:48:17.000Z</time></trkpt>
        <trkpt lat="27.475803" lon="103.291037"><ele>2819.215</ele><time>2026-08-06T23:48:29.000Z</time></trkpt>
        <trkpt lat="27.475846" lon="103.291058"><ele>2818.4172</ele><time>2026-08-06T23:48:56.000Z</time></trkpt>
        <trkpt lat="27.475809" lon="103.291022"><ele>2822.4634</ele><time>2026-08-06T23:49:09.000Z</time></trkpt>
        <trkpt lat="27.475768" lon="103.290991"><ele>2821.267</ele><time>2026-08-06T23:49:20.000Z</time></trkpt>
        <trkpt lat="27.475779" lon="103.290941"><ele>2819.7742</ele><time>2026-08-06T23:49:29.000Z</time></trkpt>
        <trkpt lat="27.475737" lon="103.290916"><ele>2818.941</ele><time>2026-08-06T23:49:37.000Z</time></trkpt>
        <trkpt lat="27.475692" lon="103.290924"><ele>2818.848</ele><time>2026-08-06T23:50:35.000Z</time></trkpt>
        <trkpt lat="27.475645" lon="103.290933"><ele>2817.437</ele><time>2026-08-06T23:50:42.000Z</time></trkpt>
        <trkpt lat="27.475597" lon="103.290932"><ele>2817.8596</ele><time>2026-08-06T23:50:54.000Z</time></trkpt>
        <trkpt lat="27.475557" lon="103.290957"><ele>2817.9448</ele><time>2026-08-06T23:51:24.000Z</time></trkpt>
        <trkpt lat="27.475548" lon="103.291012"><ele>2818.5364</ele><time>2026-08-06T23:52:10.000Z</time></trkpt>
        <trkpt lat="27.4755" lon="103.291006"><ele>2818.7383</ele><time>2026-08-06T23:52:18.000Z</time></trkpt>
        <trkpt lat="27.475464" lon="103.291043"><ele>2817.9043</ele><time>2026-08-06T23:52:26.000Z</time></trkpt>
        <trkpt lat="27.475409" lon="103.291039"><ele>2817.4072</ele><time>2026-08-06T23:52:32.000Z</time></trkpt>
        <trkpt lat="27.475361" lon="103.291043"><ele>2817.6355</ele><time>2026-08-06T23:52:38.000Z</time></trkpt>
        <trkpt lat="27.475342" lon="103.290995"><ele>2817.4766</ele><time>2026-08-06T23:53:04.000Z</time></trkpt>
        <trkpt lat="27.475392" lon="103.291003"><ele>2804.1506</ele><time>2026-08-06T23:53:30.000Z</time></trkpt>
        <trkpt lat="27.475444" lon="103.291011"><ele>2805.7212</ele><time>2026-08-06T23:53:37.000Z</time></trkpt>
        <trkpt lat="27.47549" lon="103.291007"><ele>2809.4456</ele><time>2026-08-06T23:53:47.000Z</time></trkpt>
        <trkpt lat="27.475534" lon="103.291023"><ele>2811.0388</ele><time>2026-08-06T23:53:56.000Z</time></trkpt>
        <trkpt lat="27.475579" lon="103.291018"><ele>2811.0615</ele><time>2026-08-06T23:54:03.000Z</time></trkpt>
        <trkpt lat="27.475625" lon="103.291025"><ele>2822.2812</ele><time>2026-08-06T23:54:10.000Z</time></trkpt>
        <trkpt lat="27.475661" lon="103.291064"><ele>2821.8386</ele><time>2026-08-06T23:54:17.000Z</time></trkpt>
        <trkpt lat="27.475708" lon="103.291063"><ele>2822.3315</ele><time>2026-08-06T23:54:30.000Z</time></trkpt>
        <trkpt lat="27.475767" lon="103.291064"><ele>2823.2988</ele><time>2026-08-06T23:54:35.000Z</time></trkpt>
        <trkpt lat="27.475822" lon="103.29107"><ele>2812.7776</ele><time>2026-08-06T23:54:40.000Z</time></trkpt>
        <trkpt lat="27.475865" lon="103.291049"><ele>2822.5745</ele><time>2026-08-06T23:55:00.000Z</time></trkpt>
        <trkpt lat="27.475829" lon="103.291015"><ele>2822.6116</ele><time>2026-08-06T23:55:11.000Z</time></trkpt>
        <trkpt lat="27.475783" lon="103.291027"><ele>2822.577</ele><time>2026-08-06T23:55:45.000Z</time></trkpt>
        <trkpt lat="27.475726" lon="103.291031"><ele>2822.4976</ele><time>2026-08-06T23:55:52.000Z</time></trkpt>
        <trkpt lat="27.475679" lon="103.291038"><ele>2823.6692</ele><time>2026-08-06T23:56:01.000Z</time></trkpt>
        <trkpt lat="27.475722" lon="103.291054"><ele>2821.9006</ele><time>2026-08-06T23:56:05.000Z</time></trkpt>
        <trkpt lat="27.475782" lon="103.291069"><ele>2824.988</ele><time>2026-08-06T23:57:11.000Z</time></trkpt>
        <trkpt lat="27.475741" lon="103.291047"><ele>2813.5764</ele><time>2026-08-06T23:59:13.000Z</time></trkpt>
        <trkpt lat="27.475784" lon="103.291028"><ele>2823.8647</ele><time>2026-08-06T23:59:30.000Z</time></trkpt>
        <trkpt lat="27.475771" lon="103.290973"><ele>2819.5222</ele><time>2026-08-07T00:00:15.000Z</time></trkpt>
        <trkpt lat="27.475753" lon="103.290926"><ele>2822.623</ele><time>2026-08-07T00:00:32.000Z</time></trkpt>
        <trkpt lat="27.475707" lon="103.290932"><ele>2809.7148</ele><time>2026-08-07T00:01:39.000Z</time></trkpt>
        <trkpt lat="27.475652" lon="103.290931"><ele>2809.3586</ele><time>2026-08-07T00:01:48.000Z</time></trkpt>
        <trkpt lat="27.475605" lon="103.290934"><ele>2808.7185</ele><time>2026-08-07T00:02:18.000Z</time></trkpt>
        <trkpt lat="27.475658" lon="103.290912"><ele>2816.7393</ele><time>2026-08-07T00:03:29.000Z</time></trkpt>
        <trkpt lat="27.475596" lon="103.290907"><ele>2811.0198</ele><time>2026-08-07T00:04:03.000Z</time></trkpt>
        <trkpt lat="27.475553" lon="103.290926"><ele>2809.5662</ele><time>2026-08-07T00:04:33.000Z</time></trkpt>
        <trkpt lat="27.475551" lon="103.290935"><ele>2811.673</ele><time>2026-08-07T00:04:36.000Z</time></trkpt>
        <trkpt lat="27.475595" lon="103.290966"><ele>2812.2913</ele><time>2026-08-07T00:04:46.000Z</time></trkpt>
        <trkpt lat="27.475551" lon="103.290954"><ele>2808.9478</ele><time>2026-08-07T00:04:52.000Z</time></trkpt>
        <trkpt lat="27.475564" lon="103.291032"><ele>2804.0728</ele><time>2026-08-07T00:13:41.000Z</time></trkpt>
        <trkpt lat="27.475577" lon="103.290974"><ele>2809.4998</ele><time>2026-08-07T00:13:49.000Z</time></trkpt>
        <trkpt lat="27.475591" lon="103.291033"><ele>2808.4583</ele><time>2026-08-07T00:18:38.000Z</time></trkpt>
        <trkpt lat="27.475613" lon="103.291089"><ele>2806.9504</ele><time>2026-08-07T00:18:56.000Z</time></trkpt>
        <trkpt lat="27.475612" lon="103.290992"><ele>2806.2551</ele><time>2026-08-07T00:19:11.000Z</time></trkpt>
        <trkpt lat="27.475561" lon="103.290981"><ele>2809.4724</ele><time>2026-08-07T00:19:43.000Z</time></trkpt>
        <trkpt lat="27.475568" lon="103.290929"><ele>2809.4182</ele><time>2026-08-07T00:21:08.000Z</time></trkpt>
        <trkpt lat="27.475612" lon="103.29095"><ele>2808.9827</ele><time>2026-08-07T00:22:34.000Z</time></trkpt>
        <trkpt lat="27.475638" lon="103.291012"><ele>2809.7637</ele><time>2026-08-07T00:23:05.000Z</time></trkpt>
        <trkpt lat="27.475651" lon="103.290956"><ele>2809.0034</ele><time>2026-08-07T00:23:48.000Z</time></trkpt>
        <trkpt lat="27.475603" lon="103.290941"><ele>2811.0547</ele><time>2026-08-07T00:24:35.000Z</time></trkpt>
        <trkpt lat="27.475565" lon="103.29097"><ele>2810.8066</ele><time>2026-08-07T00:25:08.000Z</time></trkpt>
        <trkpt lat="27.475555" lon="103.291027"><ele>2812.3518</ele><time>2026-08-07T00:25:19.000Z</time></trkpt>
        <trkpt lat="27.475571" lon="103.291075"><ele>2813.0623</ele><time>2026-08-07T00:25:28.000Z</time></trkpt>
        <trkpt lat="27.475572" lon="103.291127"><ele>2814.0928</ele><time>2026-08-07T00:25:44.000Z</time></trkpt>
        <trkpt lat="27.475528" lon="103.291142"><ele>2813.3767</ele><time>2026-08-07T00:26:00.000Z</time></trkpt>
        <trkpt lat="27.475486" lon="103.291168"><ele>2814.6824</ele><time>2026-08-07T00:26:07.000Z</time></trkpt>
        <trkpt lat="27.475441" lon="103.291194"><ele>2814.7024</ele><time>2026-08-07T00:26:19.000Z</time></trkpt>
        <trkpt lat="27.475413" lon="103.291238"><ele>2814.9202</ele><time>2026-08-07T00:26:30.000Z</time></trkpt>
        <trkpt lat="27.475373" lon="103.291277"><ele>2815.1267</ele><time>2026-08-07T00:26:40.000Z</time></trkpt>
        <trkpt lat="27.475333" lon="103.29132"><ele>2815.507</ele><time>2026-08-07T00:26:45.000Z</time></trkpt>
        <trkpt lat="27.475288" lon="103.29134"><ele>2815.9731</ele><time>2026-08-07T00:26:53.000Z</time></trkpt>
        <trkpt lat="27.475267" lon="103.291388"><ele>2816.4001</ele><time>2026-08-07T00:27:07.000Z</time></trkpt>
        <trkpt lat="27.475217" lon="103.291387"><ele>2816.3687</ele><time>2026-08-07T00:27:16.000Z</time></trkpt>
        <trkpt lat="27.475169" lon="103.291406"><ele>2816.7498</ele><time>2026-08-07T00:27:24.000Z</time></trkpt>
        <trkpt lat="27.475121" lon="103.291416"><ele>2814.7427</ele><time>2026-08-07T00:27:45.000Z</time></trkpt>
        <trkpt lat="27.475099" lon="103.291369"><ele>2810.7703</ele><time>2026-08-07T00:28:08.000Z</time></trkpt>
        <trkpt lat="27.475049" lon="103.291387"><ele>2811.2373</ele><time>2026-08-07T00:28:16.000Z</time></trkpt>
        <trkpt lat="27.475004" lon="103.291383"><ele>2809.351</ele><time>2026-08-07T00:28:24.000Z</time></trkpt>
        <trkpt lat="27.474959" lon="103.291385"><ele>2809.2761</ele><time>2026-08-07T00:29:07.000Z</time></trkpt>
        <trkpt lat="27.474928" lon="103.291427"><ele>2811.3054</ele><time>2026-08-07T00:29:55.000Z</time></trkpt>
        <trkpt lat="27.474959" lon="103.291388"><ele>2822.518</ele><time>2026-08-07T00:30:06.000Z</time></trkpt>
        <trkpt lat="27.475004" lon="103.291396"><ele>2820.7927</ele><time>2026-08-07T00:30:20.000Z</time></trkpt>
        <trkpt lat="27.47496" lon="103.291416"><ele>2810.5715</ele><time>2026-08-07T00:31:05.000Z</time></trkpt>
        <trkpt lat="27.474999" lon="103.29139"><ele>2812.0808</ele><time>2026-08-07T00:31:16.000Z</time></trkpt>
        <trkpt lat="27.47499" lon="103.291444"><ele>2820.74</ele><time>2026-08-07T00:31:42.000Z</time></trkpt>
        <trkpt lat="27.474946" lon="103.291464"><ele>2821.6526</ele><time>2026-08-07T00:31:50.000Z</time></trkpt>
        <trkpt lat="27.474904" lon="103.291481"><ele>2811.0115</ele><time>2026-08-07T00:32:02.000Z</time></trkpt>
        <trkpt lat="27.474899" lon="103.29143"><ele>2812.0254</ele><time>2026-08-07T00:32:18.000Z</time></trkpt>
        <trkpt lat="27.474858" lon="103.291403"><ele>2812.5203</ele><time>2026-08-07T00:32:32.000Z</time></trkpt>
        <trkpt lat="27.474807" lon="103.291395"><ele>2812.4167</ele><time>2026-08-07T00:32:41.000Z</time></trkpt>
        <trkpt lat="27.47476" lon="103.291416"><ele>2812.2852</ele><time>2026-08-07T00:32:47.000Z</time></trkpt>
        <trkpt lat="27.474726" lon="103.291454"><ele>2811.8242</ele><time>2026-08-07T00:32:56.000Z</time></trkpt>
        <trkpt lat="27.474686" lon="103.291481"><ele>2811.72</ele><time>2026-08-07T00:33:04.000Z</time></trkpt>
        <trkpt lat="27.474641" lon="103.291459"><ele>2812.264</ele><time>2026-08-07T00:33:13.000Z</time></trkpt>
        <trkpt lat="27.474592" lon="103.291463"><ele>2811.3665</ele><time>2026-08-07T00:33:19.000Z</time></trkpt>
        <trkpt lat="27.474544" lon="103.291456"><ele>2812.6025</ele><time>2026-08-07T00:33:43.000Z</time></trkpt>
        <trkpt lat="27.474509" lon="103.291421"><ele>2816.55</ele><time>2026-08-07T00:34:09.000Z</time></trkpt>
        <trkpt lat="27.474508" lon="103.29137"><ele>2815.4697</ele><time>2026-08-07T00:36:07.000Z</time></trkpt>
        <trkpt lat="27.474521" lon="103.291316"><ele>2815.0745</ele><time>2026-08-07T00:36:13.000Z</time></trkpt>
        <trkpt lat="27.474532" lon="103.291263"><ele>2814.2822</ele><time>2026-08-07T00:36:20.000Z</time></trkpt>
        <trkpt lat="27.474546" lon="103.291208"><ele>2814.3494</ele><time>2026-08-07T00:36:31.000Z</time></trkpt>
        <trkpt lat="27.474552" lon="103.291151"><ele>2814.8674</ele><time>2026-08-07T00:36:41.000Z</time></trkpt>
        <trkpt lat="27.474548" lon="103.291093"><ele>2815.432</ele><time>2026-08-07T00:36:48.000Z</time></trkpt>
        <trkpt lat="27.474533" lon="103.291042"><ele>2817.2056</ele><time>2026-08-07T00:37:23.000Z</time></trkpt>
        <trkpt lat="27.474542" lon="103.290986"><ele>2817.4636</ele><time>2026-08-07T00:37:32.000Z</time></trkpt>
        <trkpt lat="27.474542" lon="103.290979"><ele>2818.0825</ele><time>2026-08-07T00:37:33.000Z</time></trkpt>
        <trkpt lat="27.474539" lon="103.290976"><ele>2817.627</ele><time>2026-08-07T00:37:34.000Z</time></trkpt>
        <trkpt lat="27.474535" lon="103.290974"><ele>2817.627</ele><time>2026-08-07T00:37:35.000Z</time></trkpt>
        <trkpt lat="27.474531" lon="103.290972"><ele>2817.786</ele><time>2026-08-07T00:37:36.000Z</time></trkpt>
        <trkpt lat="27.474526" lon="103.29097"><ele>2818.1829</ele><time>2026-08-07T00:37:37.000Z</time></trkpt>
        <trkpt lat="27.474478" lon="103.290982"><ele>2819.3237</ele><time>2026-08-07T00:37:54.000Z</time></trkpt>
        <trkpt lat="27.474448" lon="103.29094"><ele>2819.8206</ele><time>2026-08-07T00:38:04.000Z</time></trkpt>
        <trkpt lat="27.474442" lon="103.290886"><ele>2820.9753</ele><time>2026-08-07T00:38:29.000Z</time></trkpt>
        <trkpt lat="27.474411" lon="103.290847"><ele>2822.0532</ele><time>2026-08-07T00:38:52.000Z</time></trkpt>
        <trkpt lat="27.474369" lon="103.290821"><ele>2822.1455</ele><time>2026-08-07T00:39:02.000Z</time></trkpt>
        <trkpt lat="27.474317" lon="103.290817"><ele>2822.0378</ele><time>2026-08-07T00:39:15.000Z</time></trkpt>
        <trkpt lat="27.474271" lon="103.290804"><ele>2822.3242</ele><time>2026-08-07T00:39:26.000Z</time></trkpt>
        <trkpt lat="27.474226" lon="103.29078"><ele>2823.071</ele><time>2026-08-07T00:39:37.000Z</time></trkpt>
        <trkpt lat="27.474181" lon="103.290752"><ele>2822.5867</ele><time>2026-08-07T00:39:44.000Z</time></trkpt>
        <trkpt lat="27.474133" lon="103.290743"><ele>2822.58</ele><time>2026-08-07T00:39:51.000Z</time></trkpt>
        <trkpt lat="27.474086" lon="103.290746"><ele>2822.9219</ele><time>2026-08-07T00:40:04.000Z</time></trkpt>
        <trkpt lat="27.474042" lon="103.290726"><ele>2823.0747</ele><time>2026-08-07T00:40:10.000Z</time></trkpt>
        <trkpt lat="27.474" lon="103.290703"><ele>2822.0166</ele><time>2026-08-07T00:40:17.000Z</time></trkpt>
        <trkpt lat="27.473953" lon="103.290687"><ele>2823.5127</ele><time>2026-08-07T00:40:27.000Z</time></trkpt>
        <trkpt lat="27.473905" lon="103.290694"><ele>2823.7844</ele><time>2026-08-07T00:40:36.000Z</time></trkpt>
        <trkpt lat="27.473858" lon="103.29071"><ele>2824.1345</ele><time>2026-08-07T00:40:46.000Z</time></trkpt>
        <trkpt lat="27.473811" lon="103.290705"><ele>2822.9478</ele><time>2026-08-07T00:40:58.000Z</time></trkpt>
        <trkpt lat="27.473767" lon="103.290679"><ele>2822.3567</ele><time>2026-08-07T00:41:07.000Z</time></trkpt>
        <trkpt lat="27.473724" lon="103.290651"><ele>2820.8728</ele><time>2026-08-07T00:41:25.000Z</time></trkpt>
        <trkpt lat="27.473682" lon="103.29063"><ele>2821.8408</ele><time>2026-08-07T00:41:37.000Z</time></trkpt>
        <trkpt lat="27.473634" lon="103.290612"><ele>2819.6792</ele><time>2026-08-07T00:41:46.000Z</time></trkpt>
        <trkpt lat="27.473595" lon="103.290581"><ele>2818.991</ele><time>2026-08-07T00:41:53.000Z</time></trkpt>
        <trkpt lat="27.473629" lon="103.290546"><ele>2818.2524</ele><time>2026-08-07T00:42:47.000Z</time></trkpt>
        <trkpt lat="27.473588" lon="103.290515"><ele>2823.1912</ele><time>2026-08-07T00:43:10.000Z</time></trkpt>
        <trkpt lat="27.47354" lon="103.290529"><ele>2817.6738</ele><time>2026-08-07T00:43:37.000Z</time></trkpt>
        <trkpt lat="27.473495" lon="103.290523"><ele>2818.1514</ele><time>2026-08-07T00:43:49.000Z</time></trkpt>
        <trkpt lat="27.47345" lon="103.29055"><ele>2818.357</ele><time>2026-08-07T00:44:03.000Z</time></trkpt>
        <trkpt lat="27.473405" lon="103.290566"><ele>2818.495</ele><time>2026-08-07T00:44:10.000Z</time></trkpt>
        <trkpt lat="27.47336" lon="103.290575"><ele>2818.5894</ele><time>2026-08-07T00:44:25.000Z</time></trkpt>
        <trkpt lat="27.473409" lon="103.290588"><ele>2822.1716</ele><time>2026-08-07T00:44:51.000Z</time></trkpt>
        <trkpt lat="27.473446" lon="103.290619"><ele>2818.808</ele><time>2026-08-07T00:45:20.000Z</time></trkpt>
        <trkpt lat="27.473457" lon="103.290562"><ele>2818.1702</ele><time>2026-08-07T00:45:45.000Z</time></trkpt>
        <trkpt lat="27.473446" lon="103.290509"><ele>2818.1023</ele><time>2026-08-07T00:45:50.000Z</time></trkpt>
        <trkpt lat="27.47346" lon="103.290461"><ele>2817.8538</ele><time>2026-08-07T00:46:06.000Z</time></trkpt>
        <trkpt lat="27.473434" lon="103.290508"><ele>2818.2153</ele><time>2026-08-07T00:46:16.000Z</time></trkpt>
        <trkpt lat="27.473394" lon="103.290532"><ele>2818.2153</ele><time>2026-08-07T00:46:22.000Z</time></trkpt>
        <trkpt lat="27.47335" lon="103.290564"><ele>2818.2815</ele><time>2026-08-07T00:46:27.000Z</time></trkpt>
        <trkpt lat="27.473309" lon="103.290601"><ele>2818.942</ele><time>2026-08-07T00:46:34.000Z</time></trkpt>
        <trkpt lat="27.473261" lon="103.290613"><ele>2819.2585</ele><time>2026-08-07T00:46:42.000Z</time></trkpt>
        <trkpt lat="27.473233" lon="103.290657"><ele>2819.1711</ele><time>2026-08-07T00:46:47.000Z</time></trkpt>
        <trkpt lat="27.473236" lon="103.290715"><ele>2819.3467</ele><time>2026-08-07T00:46:58.000Z</time></trkpt>
        <trkpt lat="27.473209" lon="103.290756"><ele>2820.3599</ele><time>2026-08-07T00:47:07.000Z</time></trkpt>
        <trkpt lat="27.473186" lon="103.2908"><ele>2820.4673</ele><time>2026-08-07T00:47:21.000Z</time></trkpt>
        <trkpt lat="27.473164" lon="103.290849"><ele>2820.8054</ele><time>2026-08-07T00:47:28.000Z</time></trkpt>
        <trkpt lat="27.473136" lon="103.290893"><ele>2821.239</ele><time>2026-08-07T00:47:36.000Z</time></trkpt>
        <trkpt lat="27.473105" lon="103.290935"><ele>2821.3447</ele><time>2026-08-07T00:47:44.000Z</time></trkpt>
        <trkpt lat="27.473098" lon="103.29099"><ele>2822.5825</ele><time>2026-08-07T00:47:56.000Z</time></trkpt>
        <trkpt lat="27.473061" lon="103.291034"><ele>2823.5193</ele><time>2026-08-07T00:48:04.000Z</time></trkpt>
        <trkpt lat="27.47307" lon="103.291092"><ele>2824.2998</ele><time>2026-08-07T00:48:25.000Z</time></trkpt>
        <trkpt lat="27.473065" lon="103.291143"><ele>2824.3992</ele><time>2026-08-07T00:48:33.000Z</time></trkpt>
        <trkpt lat="27.473027" lon="103.291185"><ele>2824.7815</ele><time>2026-08-07T00:48:40.000Z</time></trkpt>
        <trkpt lat="27.472994" lon="103.291221"><ele>2824.7224</ele><time>2026-08-07T00:48:46.000Z</time></trkpt>
        <trkpt lat="27.472953" lon="103.291252"><ele>2823.9683</ele><time>2026-08-07T00:48:52.000Z</time></trkpt>
        <trkpt lat="27.472903" lon="103.291275"><ele>2823.0337</ele><time>2026-08-07T00:49:05.000Z</time></trkpt>
        <trkpt lat="27.472857" lon="103.291282"><ele>2822.702</ele><time>2026-08-07T00:49:27.000Z</time></trkpt>
        <trkpt lat="27.472884" lon="103.291325"><ele>2821.7761</ele><time>2026-08-07T00:50:46.000Z</time></trkpt>
        <trkpt lat="27.47284" lon="103.291345"><ele>2822.5823</ele><time>2026-08-07T00:53:34.000Z</time></trkpt>
        <trkpt lat="27.472799" lon="103.291322"><ele>2816.5222</ele><time>2026-08-07T00:56:42.000Z</time></trkpt>
        <trkpt lat="27.472845" lon="103.291334"><ele>2824.7576</ele><time>2026-08-07T00:59:46.000Z</time></trkpt>
        <trkpt lat="27.47289" lon="103.291308"><ele>2826.501</ele><time>2026-08-07T00:59:50.000Z</time></trkpt>
        <trkpt lat="27.472932" lon="103.291284"><ele>2824.5242</ele><time>2026-08-07T01:00:37.000Z</time></trkpt>
        <trkpt lat="27.472932" lon="103.291337"><ele>2822.8806</ele><time>2026-08-07T01:00:49.000Z</time></trkpt>
        <trkpt lat="27.472926" lon="103.29128"><ele>2832.199</ele><time>2026-08-07T01:08:59.000Z</time></trkpt>
        <trkpt lat="27.472873" lon="103.29127"><ele>2831.0027</ele><time>2026-08-07T01:09:05.000Z</time></trkpt>
        <trkpt lat="27.472841" lon="103.291306"><ele>2830.6008</ele><time>2026-08-07T01:09:49.000Z</time></trkpt>
        <trkpt lat="27.472881" lon="103.29128"><ele>2829.4434</ele><time>2026-08-07T01:12:12.000Z</time></trkpt>
        <trkpt lat="27.472925" lon="103.291311"><ele>2830.401</ele><time>2026-08-07T01:14:09.000Z</time></trkpt>
        <trkpt lat="27.472966" lon="103.291279"><ele>2831.5745</ele><time>2026-08-07T01:14:30.000Z</time></trkpt>
        <trkpt lat="27.473004" lon="103.291251"><ele>2831.8435</ele><time>2026-08-07T01:14:39.000Z</time></trkpt>
        <trkpt lat="27.473041" lon="103.291207"><ele>2831.3972</ele><time>2026-08-07T01:14:46.000Z</time></trkpt>
        <trkpt lat="27.473071" lon="103.29116"><ele>2831.4666</ele><time>2026-08-07T01:14:57.000Z</time></trkpt>
        <trkpt lat="27.473076" lon="103.291106"><ele>2829.4993</ele><time>2026-08-07T01:15:05.000Z</time></trkpt>
        <trkpt lat="27.473106" lon="103.291063"><ele>2830.1875</ele><time>2026-08-07T01:15:16.000Z</time></trkpt>
        <trkpt lat="27.473133" lon="103.291017"><ele>2829.4683</ele><time>2026-08-07T01:15:25.000Z</time></trkpt>
        <trkpt lat="27.473154" lon="103.290959"><ele>2828.212</ele><time>2026-08-07T01:15:31.000Z</time></trkpt>
        <trkpt lat="27.473179" lon="103.290915"><ele>2828.5842</ele><time>2026-08-07T01:15:37.000Z</time></trkpt>
        <trkpt lat="27.473207" lon="103.290868"><ele>2828.253</ele><time>2026-08-07T01:15:48.000Z</time></trkpt>
        <trkpt lat="27.473235" lon="103.290825"><ele>2827.147</ele><time>2026-08-07T01:15:55.000Z</time></trkpt>
        <trkpt lat="27.473272" lon="103.290795"><ele>2827.1982</ele><time>2026-08-07T01:16:01.000Z</time></trkpt>
        <trkpt lat="27.473287" lon="103.290745"><ele>2828.8115</ele><time>2026-08-07T01:16:06.000Z</time></trkpt>
        <trkpt lat="27.47332" lon="103.290699"><ele>2829.709</ele><time>2026-08-07T01:16:12.000Z</time></trkpt>
        <trkpt lat="27.473334" lon="103.290644"><ele>2831.29</ele><time>2026-08-07T01:16:18.000Z</time></trkpt>
        <trkpt lat="27.47334" lon="103.290593"><ele>2826.3545</ele><time>2026-08-07T01:16:24.000Z</time></trkpt>
        <trkpt lat="27.473379" lon="103.290557"><ele>2825.9194</ele><time>2026-08-07T01:16:30.000Z</time></trkpt>
        <trkpt lat="27.473386" lon="103.290551"><ele>2825.9194</ele><time>2026-08-07T01:16:31.000Z</time></trkpt>
        <trkpt lat="27.473422" lon="103.290517"><ele>2825.5635</ele><time>2026-08-07T01:16:39.000Z</time></trkpt>
        <trkpt lat="27.473456" lon="103.290472"><ele>2826.1055</ele><time>2026-08-07T01:16:47.000Z</time></trkpt>
        <trkpt lat="27.473454" lon="103.290421"><ele>2824.1687</ele><time>2026-08-07T01:16:53.000Z</time></trkpt>
        <trkpt lat="27.473407" lon="103.290422"><ele>2825.3792</ele><time>2026-08-07T01:17:05.000Z</time></trkpt>
        <trkpt lat="27.473459" lon="103.290413"><ele>2824.9011</ele><time>2026-08-07T01:17:16.000Z</time></trkpt>
        <trkpt lat="27.473504" lon="103.29043"><ele>2824.6313</ele><time>2026-08-07T01:17:26.000Z</time></trkpt>
        <trkpt lat="27.473547" lon="103.290408"><ele>2824.9067</ele><time>2026-08-07T01:17:34.000Z</time></trkpt>
        <trkpt lat="27.473588" lon="103.290383"><ele>2825.0422</ele><time>2026-08-07T01:18:15.000Z</time></trkpt>
        <trkpt lat="27.47354" lon="103.290399"><ele>2824.8005</ele><time>2026-08-07T01:18:24.000Z</time></trkpt>
        <trkpt lat="27.473489" lon="103.29041"><ele>2822.8513</ele><time>2026-08-07T01:18:30.000Z</time></trkpt>
        <trkpt lat="27.473437" lon="103.290404"><ele>2823.4465</ele><time>2026-08-07T01:18:41.000Z</time></trkpt>
        <trkpt lat="27.473399" lon="103.290433"><ele>2822.2405</ele><time>2026-08-07T01:19:00.000Z</time></trkpt>
        <trkpt lat="27.473361" lon="103.290402"><ele>2821.0151</ele><time>2026-08-07T01:20:56.000Z</time></trkpt>
        <trkpt lat="27.473332" lon="103.290359"><ele>2822.143</ele><time>2026-08-07T01:21:24.000Z</time></trkpt>
        <trkpt lat="27.47328" lon="103.290339"><ele>2821.9194</ele><time>2026-08-07T01:22:09.000Z</time></trkpt>
        <trkpt lat="27.473326" lon="103.290344"><ele>2820.576</ele><time>2026-08-07T01:23:17.000Z</time></trkpt>
        <trkpt lat="27.473328" lon="103.290342"><ele>2820.576</ele><time>2026-08-07T01:23:18.000Z</time></trkpt>
        <trkpt lat="27.473277" lon="103.290337"><ele>2828.4946</ele><time>2026-08-07T01:34:50.000Z</time></trkpt>
        <trkpt lat="27.473235" lon="103.290311"><ele>2828.9587</ele><time>2026-08-07T01:35:00.000Z</time></trkpt>
        <trkpt lat="27.473187" lon="103.290312"><ele>2827.3154</ele><time>2026-08-07T01:35:56.000Z</time></trkpt>
        <trkpt lat="27.473146" lon="103.290335"><ele>2828.648</ele><time>2026-08-07T01:36:05.000Z</time></trkpt>
        <trkpt lat="27.473139" lon="103.290393"><ele>2828.9753</ele><time>2026-08-07T01:36:25.000Z</time></trkpt>
        <trkpt lat="27.473098" lon="103.290418"><ele>2828.0576</ele><time>2026-08-07T01:36:32.000Z</time></trkpt>
        <trkpt lat="27.473055" lon="103.290435"><ele>2825.406</ele><time>2026-08-07T01:36:38.000Z</time></trkpt>
        <trkpt lat="27.473033" lon="103.290481"><ele>2838.2083</ele><time>2026-08-07T01:36:46.000Z</time></trkpt>
        <trkpt lat="27.472986" lon="103.290515"><ele>2838.9434</ele><time>2026-08-07T01:36:53.000Z</time></trkpt>
        <trkpt lat="27.472953" lon="103.290558"><ele>2837.7104</ele><time>2026-08-07T01:37:01.000Z</time></trkpt>
        <trkpt lat="27.472935" lon="103.290606"><ele>2829.2192</ele><time>2026-08-07T01:37:07.000Z</time></trkpt>
        <trkpt lat="27.472903" lon="103.290646"><ele>2830.0361</ele><time>2026-08-07T01:37:15.000Z</time></trkpt>
        <trkpt lat="27.472868" lon="103.290682"><ele>2830.3984</ele><time>2026-08-07T01:37:22.000Z</time></trkpt>
        <trkpt lat="27.472829" lon="103.290709"><ele>2830.607</ele><time>2026-08-07T01:37:28.000Z</time></trkpt>
        <trkpt lat="27.472804" lon="103.29076"><ele>2832.0366</ele><time>2026-08-07T01:37:37.000Z</time></trkpt>
        <trkpt lat="27.472771" lon="103.290796"><ele>2832.7249</ele><time>2026-08-07T01:37:47.000Z</time></trkpt>
        <trkpt lat="27.472744" lon="103.290836"><ele>2833.344</ele><time>2026-08-07T01:37:58.000Z</time></trkpt>
        <trkpt lat="27.472707" lon="103.290874"><ele>2834.2532</ele><time>2026-08-07T01:38:16.000Z</time></trkpt>
        <trkpt lat="27.472669" lon="103.290909"><ele>2834.7595</ele><time>2026-08-07T01:38:28.000Z</time></trkpt>
        <trkpt lat="27.472635" lon="103.290944"><ele>2832.974</ele><time>2026-08-07T01:38:34.000Z</time></trkpt>
        <trkpt lat="27.472617" lon="103.290994"><ele>2831.3667</ele><time>2026-08-07T01:38:42.000Z</time></trkpt>
        <trkpt lat="27.472583" lon="103.29104"><ele>2832.9653</ele><time>2026-08-07T01:39:09.000Z</time></trkpt>
        <trkpt lat="27.47258" lon="103.291093"><ele>2837.828</ele><time>2026-08-07T01:39:15.000Z</time></trkpt>
        <trkpt lat="27.47259" lon="103.291143"><ele>2839.1438</ele><time>2026-08-07T01:39:24.000Z</time></trkpt>
        <trkpt lat="27.47264" lon="103.291161"><ele>2841.1465</ele><time>2026-08-07T01:39:30.000Z</time></trkpt>
        <trkpt lat="27.472683" lon="103.291181"><ele>2840.6255</ele><time>2026-08-07T01:39:36.000Z</time></trkpt>
        <trkpt lat="27.472632" lon="103.291167"><ele>2836.0745</ele><time>2026-08-07T01:43:26.000Z</time></trkpt>
        <trkpt lat="27.472586" lon="103.291165"><ele>2835.9421</ele><time>2026-08-07T01:43:32.000Z</time></trkpt>
        <trkpt lat="27.472562" lon="103.291209"><ele>2835.4277</ele><time>2026-08-07T01:43:41.000Z</time></trkpt>
        <trkpt lat="27.472561" lon="103.291264"><ele>2835.527</ele><time>2026-08-07T01:43:52.000Z</time></trkpt>
        <trkpt lat="27.472542" lon="103.291315"><ele>2836.2666</ele><time>2026-08-07T01:43:59.000Z</time></trkpt>
        <trkpt lat="27.472515" lon="103.291358"><ele>2836.9915</ele><time>2026-08-07T01:44:08.000Z</time></trkpt>
        <trkpt lat="27.472479" lon="103.291394"><ele>2836.9607</ele><time>2026-08-07T01:44:15.000Z</time></trkpt>
        <trkpt lat="27.472442" lon="103.291423"><ele>2842.467</ele><time>2026-08-07T01:44:21.000Z</time></trkpt>
        <trkpt lat="27.472401" lon="103.29145"><ele>2838.468</ele><time>2026-08-07T01:44:33.000Z</time></trkpt>
        <trkpt lat="27.472351" lon="103.291466"><ele>2839.4663</ele><time>2026-08-07T01:44:39.000Z</time></trkpt>
        <trkpt lat="27.472308" lon="103.291487"><ele>2839.691</ele><time>2026-08-07T01:44:44.000Z</time></trkpt>
        <trkpt lat="27.472266" lon="103.291512"><ele>2840.9268</ele><time>2026-08-07T01:44:52.000Z</time></trkpt>
        <trkpt lat="27.472236" lon="103.291552"><ele>2841.5393</ele><time>2026-08-07T01:45:00.000Z</time></trkpt>
        <trkpt lat="27.472199" lon="103.291587"><ele>2842.572</ele><time>2026-08-07T01:45:10.000Z</time></trkpt>
        <trkpt lat="27.472153" lon="103.291598"><ele>2843.854</ele><time>2026-08-07T01:45:35.000Z</time></trkpt>
        <trkpt lat="27.472114" lon="103.291628"><ele>2844.2031</ele><time>2026-08-07T01:45:44.000Z</time></trkpt>
        <trkpt lat="27.472072" lon="103.291647"><ele>2844.759</ele><time>2026-08-07T01:46:03.000Z</time></trkpt>
        <trkpt lat="27.472029" lon="103.291671"><ele>2845.313</ele><time>2026-08-07T01:46:09.000Z</time></trkpt>
        <trkpt lat="27.471988" lon="103.291695"><ele>2846.1008</ele><time>2026-08-07T01:46:16.000Z</time></trkpt>
        <trkpt lat="27.471947" lon="103.291726"><ele>2847.861</ele><time>2026-08-07T01:46:29.000Z</time></trkpt>
        <trkpt lat="27.4719" lon="103.291725"><ele>2848.8267</ele><time>2026-08-07T01:46:36.000Z</time></trkpt>
        <trkpt lat="27.47185" lon="103.291733"><ele>2848.996</ele><time>2026-08-07T01:46:44.000Z</time></trkpt>
        <trkpt lat="27.4718" lon="103.291741"><ele>2848.1362</ele><time>2026-08-07T01:46:51.000Z</time></trkpt>
        <trkpt lat="27.471762" lon="103.291777"><ele>2848.8894</ele><time>2026-08-07T01:47:38.000Z</time></trkpt>
        <trkpt lat="27.471719" lon="103.291794"><ele>2849.7651</ele><time>2026-08-07T01:47:48.000Z</time></trkpt>
        <trkpt lat="27.471673" lon="103.291783"><ele>2849.906</ele><time>2026-08-07T01:48:15.000Z</time></trkpt>
        <trkpt lat="27.471629" lon="103.291806"><ele>2849.891</ele><time>2026-08-07T01:48:23.000Z</time></trkpt>
        <trkpt lat="27.471596" lon="103.291848"><ele>2847.7576</ele><time>2026-08-07T01:48:31.000Z</time></trkpt>
        <trkpt lat="27.471551" lon="103.291866"><ele>2848.4387</ele><time>2026-08-07T01:48:39.000Z</time></trkpt>
        <trkpt lat="27.471508" lon="103.291883"><ele>2849.0286</ele><time>2026-08-07T01:48:47.000Z</time></trkpt>
        <trkpt lat="27.471463" lon="103.291908"><ele>2848.8193</ele><time>2026-08-07T01:48:55.000Z</time></trkpt>
        <trkpt lat="27.471417" lon="103.291908"><ele>2848.8586</ele><time>2026-08-07T01:49:01.000Z</time></trkpt>
        <trkpt lat="27.471369" lon="103.291924"><ele>2849.414</ele><time>2026-08-07T01:49:08.000Z</time></trkpt>
        <trkpt lat="27.471319" lon="103.291921"><ele>2850.3584</ele><time>2026-08-07T01:49:15.000Z</time></trkpt>
        <trkpt lat="27.471271" lon="103.291929"><ele>2850.1072</ele><time>2026-08-07T01:49:22.000Z</time></trkpt>
        <trkpt lat="27.471225" lon="103.291906"><ele>2850.3362</ele><time>2026-08-07T01:49:31.000Z</time></trkpt>
        <trkpt lat="27.471176" lon="103.291901"><ele>2850.9797</ele><time>2026-08-07T01:49:39.000Z</time></trkpt>
        <trkpt lat="27.471126" lon="103.29191"><ele>2850.9072</ele><time>2026-08-07T01:49:46.000Z</time></trkpt>
        <trkpt lat="27.471081" lon="103.29189"><ele>2851.0261</ele><time>2026-08-07T01:49:53.000Z</time></trkpt>
        <trkpt lat="27.47103" lon="103.291884"><ele>2850.6533</ele><time>2026-08-07T01:50:01.000Z</time></trkpt>
        <trkpt lat="27.47098" lon="103.291892"><ele>2850.4272</ele><time>2026-08-07T01:50:08.000Z</time></trkpt>
        <trkpt lat="27.47094" lon="103.291866"><ele>2851.8503</ele><time>2026-08-07T01:50:23.000Z</time></trkpt>
        <trkpt lat="27.470892" lon="103.29187"><ele>2853.81</ele><time>2026-08-07T01:50:30.000Z</time></trkpt>
        <trkpt lat="27.470845" lon="103.291892"><ele>2853.152</ele><time>2026-08-07T01:50:42.000Z</time></trkpt>
        <trkpt lat="27.470798" lon="103.291884"><ele>2854.4617</ele><time>2026-08-07T01:50:49.000Z</time></trkpt>
        <trkpt lat="27.470752" lon="103.291864"><ele>2852.356</ele><time>2026-08-07T01:50:57.000Z</time></trkpt>
        <trkpt lat="27.470704" lon="103.291854"><ele>2852.5642</ele><time>2026-08-07T01:51:05.000Z</time></trkpt>
        <trkpt lat="27.470736" lon="103.291896"><ele>2852.1235</ele><time>2026-08-07T01:51:26.000Z</time></trkpt>
        <trkpt lat="27.470716" lon="103.291953"><ele>2861.0718</ele><time>2026-08-07T01:52:55.000Z</time></trkpt>
        <trkpt lat="27.470759" lon="103.291933"><ele>2856.3872</ele><time>2026-08-07T01:54:28.000Z</time></trkpt>
        <trkpt lat="27.470709" lon="103.291911"><ele>2852.4922</ele><time>2026-08-07T01:55:02.000Z</time></trkpt>
        <trkpt lat="27.470706" lon="103.291861"><ele>2859.086</ele><time>2026-08-07T01:55:45.000Z</time></trkpt>
        <trkpt lat="27.470664" lon="103.291839"><ele>2860.4036</ele><time>2026-08-07T01:55:54.000Z</time></trkpt>
        <trkpt lat="27.470612" lon="103.291827"><ele>2858.4768</ele><time>2026-08-07T01:56:01.000Z</time></trkpt>
        <trkpt lat="27.470562" lon="103.291814"><ele>2862.4043</ele><time>2026-08-07T01:56:09.000Z</time></trkpt>
        <trkpt lat="27.47052" lon="103.291792"><ele>2858.7637</ele><time>2026-08-07T01:56:16.000Z</time></trkpt>
        <trkpt lat="27.470472" lon="103.291801"><ele>2858.8647</ele><time>2026-08-07T01:56:39.000Z</time></trkpt>
        <trkpt lat="27.470425" lon="103.2918"><ele>2859.4387</ele><time>2026-08-07T01:56:48.000Z</time></trkpt>
        <trkpt lat="27.470379" lon="103.291811"><ele>2859.3088</ele><time>2026-08-07T01:56:55.000Z</time></trkpt>
        <trkpt lat="27.470332" lon="103.291817"><ele>2860.0945</ele><time>2026-08-07T01:57:03.000Z</time></trkpt>
        <trkpt lat="27.470284" lon="103.291818"><ele>2860.9714</ele><time>2026-08-07T01:57:10.000Z</time></trkpt>
        <trkpt lat="27.470233" lon="103.291821"><ele>2859.6492</ele><time>2026-08-07T01:57:16.000Z</time></trkpt>
        <trkpt lat="27.470187" lon="103.29182"><ele>2861.4883</ele><time>2026-08-07T01:57:25.000Z</time></trkpt>
        <trkpt lat="27.470142" lon="103.291818"><ele>2862.5261</ele><time>2026-08-07T01:57:32.000Z</time></trkpt>
        <trkpt lat="27.470097" lon="103.291809"><ele>2862.7205</ele><time>2026-08-07T01:57:40.000Z</time></trkpt>
        <trkpt lat="27.470054" lon="103.291794"><ele>2863.7485</ele><time>2026-08-07T01:57:48.000Z</time></trkpt>
        <trkpt lat="27.470009" lon="103.291785"><ele>2862.543</ele><time>2026-08-07T01:57:57.000Z</time></trkpt>
        <trkpt lat="27.469961" lon="103.29177"><ele>2862.419</ele><time>2026-08-07T01:58:12.000Z</time></trkpt>
        <trkpt lat="27.469922" lon="103.291731"><ele>2864.4067</ele><time>2026-08-07T01:58:22.000Z</time></trkpt>
        <trkpt lat="27.469878" lon="103.291709"><ele>2864.6567</ele><time>2026-08-07T01:58:30.000Z</time></trkpt>
        <trkpt lat="27.46987" lon="103.291657"><ele>2864.5195</ele><time>2026-08-07T01:58:47.000Z</time></trkpt>
        <trkpt lat="27.469835" lon="103.291624"><ele>2864.1204</ele><time>2026-08-07T01:58:58.000Z</time></trkpt>
        <trkpt lat="27.46979" lon="103.291651"><ele>2864.896</ele><time>2026-08-07T01:59:05.000Z</time></trkpt>
        <trkpt lat="27.469775" lon="103.2917"><ele>2865.108</ele><time>2026-08-07T01:59:28.000Z</time></trkpt>
        <trkpt lat="27.469803" lon="103.291745"><ele>2865.3967</ele><time>2026-08-07T02:00:58.000Z</time></trkpt>
        <trkpt lat="27.469795" lon="103.291682"><ele>2864.9465</ele><time>2026-08-07T02:01:58.000Z</time></trkpt>
        <trkpt lat="27.469755" lon="103.291645"><ele>2861.3113</ele><time>2026-08-07T02:02:07.000Z</time></trkpt>
        <trkpt lat="27.469707" lon="103.291639"><ele>2862.1123</ele><time>2026-08-07T02:02:13.000Z</time></trkpt>
        <trkpt lat="27.469665" lon="103.291663"><ele>2863.5469</ele><time>2026-08-07T02:02:21.000Z</time></trkpt>
        <trkpt lat="27.469627" lon="103.291699"><ele>2867.1333</ele><time>2026-08-07T02:02:34.000Z</time></trkpt>
        <trkpt lat="27.46959" lon="103.291742"><ele>2866.8533</ele><time>2026-08-07T02:02:41.000Z</time></trkpt>
        <trkpt lat="27.469548" lon="103.291771"><ele>2867.7144</ele><time>2026-08-07T02:02:49.000Z</time></trkpt>
        <trkpt lat="27.469507" lon="103.291799"><ele>2868.7463</ele><time>2026-08-07T02:02:58.000Z</time></trkpt>
        <trkpt lat="27.469469" lon="103.291828"><ele>2869.3882</ele><time>2026-08-07T02:03:05.000Z</time></trkpt>
        <trkpt lat="27.469416" lon="103.291833"><ele>2869.4531</ele><time>2026-08-07T02:03:12.000Z</time></trkpt>
        <trkpt lat="27.469365" lon="103.291852"><ele>2869.4001</ele><time>2026-08-07T02:03:20.000Z</time></trkpt>
        <trkpt lat="27.469315" lon="103.291854"><ele>2870.574</ele><time>2026-08-07T02:03:30.000Z</time></trkpt>
        <trkpt lat="27.469268" lon="103.291844"><ele>2870.2937</ele><time>2026-08-07T02:03:37.000Z</time></trkpt>
        <trkpt lat="27.469225" lon="103.291861"><ele>2871.0288</ele><time>2026-08-07T02:03:45.000Z</time></trkpt>
        <trkpt lat="27.469183" lon="103.291881"><ele>2871.5076</ele><time>2026-08-07T02:04:02.000Z</time></trkpt>
        <trkpt lat="27.469145" lon="103.291912"><ele>2871.6748</ele><time>2026-08-07T02:04:11.000Z</time></trkpt>
        <trkpt lat="27.46911" lon="103.291878"><ele>2872.237</ele><time>2026-08-07T02:04:18.000Z</time></trkpt>
        <trkpt lat="27.46906" lon="103.291886"><ele>2872.8132</ele><time>2026-08-07T02:04:24.000Z</time></trkpt>
        <trkpt lat="27.469015" lon="103.291902"><ele>2874.255</ele><time>2026-08-07T02:04:31.000Z</time></trkpt>
        <trkpt lat="27.468987" lon="103.291946"><ele>2874.983</ele><time>2026-08-07T02:04:43.000Z</time></trkpt>
        <trkpt lat="27.468967" lon="103.291994"><ele>2874.6792</ele><time>2026-08-07T02:04:50.000Z</time></trkpt>
        <trkpt lat="27.468938" lon="103.292041"><ele>2874.9429</ele><time>2026-08-07T02:04:57.000Z</time></trkpt>
        <trkpt lat="27.468924" lon="103.292093"><ele>2874.6545</ele><time>2026-08-07T02:05:07.000Z</time></trkpt>
        <trkpt lat="27.468901" lon="103.292144"><ele>2873.5889</ele><time>2026-08-07T02:05:20.000Z</time></trkpt>
        <trkpt lat="27.468885" lon="103.292195"><ele>2873.474</ele><time>2026-08-07T02:05:34.000Z</time></trkpt>
        <trkpt lat="27.468869" lon="103.292244"><ele>2874.8857</ele><time>2026-08-07T02:05:41.000Z</time></trkpt>
        <trkpt lat="27.468861" lon="103.292296"><ele>2875.7766</ele><time>2026-08-07T02:05:49.000Z</time></trkpt>
        <trkpt lat="27.468834" lon="103.292339"><ele>2875.8328</ele><time>2026-08-07T02:05:57.000Z</time></trkpt>
        <trkpt lat="27.468805" lon="103.292381"><ele>2877.7595</ele><time>2026-08-07T02:06:17.000Z</time></trkpt>
        <trkpt lat="27.468754" lon="103.292387"><ele>2879.5457</ele><time>2026-08-07T02:06:39.000Z</time></trkpt>
        <trkpt lat="27.468786" lon="103.292424"><ele>2878.8728</ele><time>2026-08-07T02:06:48.000Z</time></trkpt>
        <trkpt lat="27.468763" lon="103.292472"><ele>2880.0728</ele><time>2026-08-07T02:07:00.000Z</time></trkpt>
        <trkpt lat="27.468755" lon="103.292524"><ele>2880.654</ele><time>2026-08-07T02:07:08.000Z</time></trkpt>
        <trkpt lat="27.468737" lon="103.292574"><ele>2881.3035</ele><time>2026-08-07T02:07:15.000Z</time></trkpt>
        <trkpt lat="27.468718" lon="103.292625"><ele>2882.3518</ele><time>2026-08-07T02:07:21.000Z</time></trkpt>
        <trkpt lat="27.468719" lon="103.292679"><ele>2881.172</ele><time>2026-08-07T02:07:29.000Z</time></trkpt>
        <trkpt lat="27.468722" lon="103.29273"><ele>2881.263</ele><time>2026-08-07T02:07:38.000Z</time></trkpt>
        <trkpt lat="27.468744" lon="103.292783"><ele>2880.952</ele><time>2026-08-07T02:07:46.000Z</time></trkpt>
        <trkpt lat="27.468716" lon="103.292832"><ele>2881.1606</ele><time>2026-08-07T02:07:53.000Z</time></trkpt>
        <trkpt lat="27.468709" lon="103.292882"><ele>2881.2766</ele><time>2026-08-07T02:08:02.000Z</time></trkpt>
        <trkpt lat="27.468751" lon="103.292904"><ele>2881.2976</ele><time>2026-08-07T02:08:14.000Z</time></trkpt>
        <trkpt lat="27.468781" lon="103.292942"><ele>2880.9524</ele><time>2026-08-07T02:08:35.000Z</time></trkpt>
        <trkpt lat="27.468746" lon="103.292909"><ele>2879.4468</ele><time>2026-08-07T02:09:35.000Z</time></trkpt>
        <trkpt lat="27.468698" lon="103.292901"><ele>2880.793</ele><time>2026-08-07T02:09:41.000Z</time></trkpt>
        <trkpt lat="27.468651" lon="103.29292"><ele>2881.6248</ele><time>2026-08-07T02:09:46.000Z</time></trkpt>
        <trkpt lat="27.468621" lon="103.292959"><ele>2882.515</ele><time>2026-08-07T02:10:03.000Z</time></trkpt>
        <trkpt lat="27.46861" lon="103.293017"><ele>2882.618</ele><time>2026-08-07T02:10:09.000Z</time></trkpt>
        <trkpt lat="27.468576" lon="103.293053"><ele>2883.8867</ele><time>2026-08-07T02:10:29.000Z</time></trkpt>
        <trkpt lat="27.468576" lon="103.293104"><ele>2884.5803</ele><time>2026-08-07T02:10:38.000Z</time></trkpt>
        <trkpt lat="27.468569" lon="103.29316"><ele>2883.9512</ele><time>2026-08-07T02:10:46.000Z</time></trkpt>
        <trkpt lat="27.468543" lon="103.293206"><ele>2883.931</ele><time>2026-08-07T02:10:55.000Z</time></trkpt>
        <trkpt lat="27.468524" lon="103.293253"><ele>2884.4565</ele><time>2026-08-07T02:11:02.000Z</time></trkpt>
        <trkpt lat="27.468495" lon="103.293299"><ele>2883.2966</ele><time>2026-08-07T02:11:09.000Z</time></trkpt>
        <trkpt lat="27.468473" lon="103.293347"><ele>2884.0156</ele><time>2026-08-07T02:11:20.000Z</time></trkpt>
        <trkpt lat="27.468509" lon="103.293385"><ele>2885.3118</ele><time>2026-08-07T02:11:34.000Z</time></trkpt>
        <trkpt lat="27.468496" lon="103.293438"><ele>2884.2695</ele><time>2026-08-07T02:12:36.000Z</time></trkpt>
        <trkpt lat="27.468482" lon="103.293486"><ele>2882.6816</ele><time>2026-08-07T02:12:47.000Z</time></trkpt>
        <trkpt lat="27.468453" lon="103.293525"><ele>2884.3425</ele><time>2026-08-07T02:13:00.000Z</time></trkpt>
        <trkpt lat="27.468426" lon="103.29357"><ele>2886.716</ele><time>2026-08-07T02:13:11.000Z</time></trkpt>
        <trkpt lat="27.468402" lon="103.293616"><ele>2882.2283</ele><time>2026-08-07T02:13:27.000Z</time></trkpt>
        <trkpt lat="27.468417" lon="103.293664"><ele>2890.4194</ele><time>2026-08-07T02:14:47.000Z</time></trkpt>
        <trkpt lat="27.468377" lon="103.293692"><ele>2883.1938</ele><time>2026-08-07T02:15:00.000Z</time></trkpt>
        <trkpt lat="27.468336" lon="103.293718"><ele>2883.3586</ele><time>2026-08-07T02:15:11.000Z</time></trkpt>
        <trkpt lat="27.468319" lon="103.293769"><ele>2884.522</ele><time>2026-08-07T02:15:22.000Z</time></trkpt>
        <trkpt lat="27.468291" lon="103.293815"><ele>2883.7222</ele><time>2026-08-07T02:15:29.000Z</time></trkpt>
        <trkpt lat="27.468259" lon="103.293865"><ele>2891.7034</ele><time>2026-08-07T02:15:35.000Z</time></trkpt>
        <trkpt lat="27.468223" lon="103.293896"><ele>2891.351</ele><time>2026-08-07T02:15:40.000Z</time></trkpt>
        <trkpt lat="27.468189" lon="103.293931"><ele>2890.3408</ele><time>2026-08-07T02:15:45.000Z</time></trkpt>
        <trkpt lat="27.468152" lon="103.293968"><ele>2889.8167</ele><time>2026-08-07T02:15:52.000Z</time></trkpt>
        <trkpt lat="27.468122" lon="103.294007"><ele>2888.5283</ele><time>2026-08-07T02:15:59.000Z</time></trkpt>
        <trkpt lat="27.468085" lon="103.294043"><ele>2887.6914</ele><time>2026-08-07T02:16:08.000Z</time></trkpt>
        <trkpt lat="27.468042" lon="103.294067"><ele>2887.5483</ele><time>2026-08-07T02:16:14.000Z</time></trkpt>
        <trkpt lat="27.467992" lon="103.294082"><ele>2884.4563</ele><time>2026-08-07T02:16:20.000Z</time></trkpt>
        <trkpt lat="27.467948" lon="103.294106"><ele>2884.4397</ele><time>2026-08-07T02:16:25.000Z</time></trkpt>
        <trkpt lat="27.4679" lon="103.294115"><ele>2884.3018</ele><time>2026-08-07T02:16:32.000Z</time></trkpt>
        <trkpt lat="27.467856" lon="103.294144"><ele>2884.655</ele><time>2026-08-07T02:16:39.000Z</time></trkpt>
        <trkpt lat="27.46781" lon="103.294146"><ele>2883.7595</ele><time>2026-08-07T02:16:47.000Z</time></trkpt>
        <trkpt lat="27.46777" lon="103.294178"><ele>2885.754</ele><time>2026-08-07T02:16:54.000Z</time></trkpt>
        <trkpt lat="27.467724" lon="103.294195"><ele>2885.254</ele><time>2026-08-07T02:17:01.000Z</time></trkpt>
        <trkpt lat="27.46768" lon="103.294189"><ele>2884.6716</ele><time>2026-08-07T02:17:08.000Z</time></trkpt>
        <trkpt lat="27.467632" lon="103.294209"><ele>2885.207</ele><time>2026-08-07T02:17:17.000Z</time></trkpt>
        <trkpt lat="27.467585" lon="103.294198"><ele>2885.2776</ele><time>2026-08-07T02:17:27.000Z</time></trkpt>
        <trkpt lat="27.467531" lon="103.294193"><ele>2884.9531</ele><time>2026-08-07T02:17:34.000Z</time></trkpt>
        <trkpt lat="27.46749" lon="103.294171"><ele>2885.5652</ele><time>2026-08-07T02:17:39.000Z</time></trkpt>
        <trkpt lat="27.46744" lon="103.294179"><ele>2884.7935</ele><time>2026-08-07T02:18:02.000Z</time></trkpt>
        <trkpt lat="27.467394" lon="103.294179"><ele>2884.989</ele><time>2026-08-07T02:18:13.000Z</time></trkpt>
        <trkpt lat="27.467347" lon="103.294157"><ele>2885.109</ele><time>2026-08-07T02:18:21.000Z</time></trkpt>
        <trkpt lat="27.467301" lon="103.294151"><ele>2885.3896</ele><time>2026-08-07T02:18:28.000Z</time></trkpt>
        <trkpt lat="27.467255" lon="103.29413"><ele>2886.3208</ele><time>2026-08-07T02:18:34.000Z</time></trkpt>
        <trkpt lat="27.467212" lon="103.294106"><ele>2885.3086</ele><time>2026-08-07T02:18:39.000Z</time></trkpt>
        <trkpt lat="27.467168" lon="103.29409"><ele>2885.8909</ele><time>2026-08-07T02:18:47.000Z</time></trkpt>
        <trkpt lat="27.46718" lon="103.294144"><ele>2882.2075</ele><time>2026-08-07T02:19:10.000Z</time></trkpt>
        <trkpt lat="27.467145" lon="103.294188"><ele>2882.115</ele><time>2026-08-07T02:19:13.000Z</time></trkpt>
        <trkpt lat="27.467177" lon="103.294127"><ele>2885.4104</ele><time>2026-08-07T02:19:24.000Z</time></trkpt>
      </trkseg>
  </trk>
</gpx>